Observation data for Stratford on 04/16/2021      Previous  Date  Next       Current Mesonet Observations  Soil Data  Daily Summary Page  Observations in Plain Language
KST4 160500Z 13010KT 04/04 A2994 RMK A01 T00440040  RH  098%=      5-min Rain = 0
KST4 160501Z 12011KT 04/04 A2994 RMK A01 T00440040  RH  098%=      5-min Rain = 0
KST4 160502Z 12010KT 04/04 A2994 RMK A01 T00440040  RH  098%=      5-min Rain = 0
KST4 160503Z 12011KT 04/04 A2994 RMK A01 T00440040  RH  098%=      5-min Rain = 0
KST4 160504Z 13009KT 04/04 A2994 RMK A01 T00440040  RH  098%=      5-min Rain = 0
KST4 160505Z 13011KT 04/04 A2994 RMK A01 T00440040  RH  098%=      5-min Rain = 0
KST4 160506Z 12010KT 04/04 A2994 RMK A01 T00440040  RH  098%=      5-min Rain = 0
KST4 160507Z 13008KT 04/04 A2994 RMK A01 T00440040  RH  098%=      5-min Rain = 0
KST4 160508Z 13009KT 04/04 A2994 RMK A01 T00440040  RH  098%=      5-min Rain = 0
KST4 160509Z 13009KT 04/04 A2994 RMK A01 T00440041  RH  098%=      5-min Rain = 0
KST4 160510Z 13009KT 04/04 A2994 RMK A01 T00440040  RH  098%=      5-min Rain = 0
KST4 160511Z 13009KT 04/04 A2994 RMK A01 T00440040  RH  098%=      5-min Rain = 0
KST4 160512Z 13009KT 04/04 A2994 RMK A01 T00440040  RH  098%=      5-min Rain = 0
KST4 160513Z 13010KT 04/04 A2994 RMK A01 T00440041  RH  098%=      5-min Rain = 0
KST4 160514Z 13009KT 04/04 A2994 RMK A01 T00440040  RH  098%=      5-min Rain = 0
KST4 160515Z 13010KT 04/04 A2994 RMK A01 T00440040  RH  098%=      5-min Rain = 0
KST4 160516Z 13009KT 04/04 A2994 RMK A01 T00440040  RH  098%=      5-min Rain = 0
KST4 160517Z 13008KT 04/04 A2994 RMK A01 T00440040  RH  098%=      5-min Rain = 0
KST4 160518Z 13008KT 04/04 A2995 RMK A01 T00440041  RH  098%=      5-min Rain = 0
KST4 160519Z 13008KT 04/04 A2995 RMK A01 T00440040  RH  098%=      5-min Rain = 0
KST4 160520Z 12008KT 04/04 A2995 RMK A01 T00440040  RH  098%=      5-min Rain = 0
KST4 160521Z 13007KT 04/04 A2995 RMK A01 T00440041  RH  098%=      5-min Rain = 0
KST4 160522Z 13008KT 05/04 A2995 RMK A01 T00450041  RH  098%=      5-min Rain = 0
KST4 160523Z 13008KT 04/04 A2994 RMK A01 T00440041  RH  098%=      5-min Rain = 0
KST4 160524Z 12009KT 04/04 A2994 RMK A01 T00440041  RH  098%=      5-min Rain = 0
KST4 160525Z 13010KT 04/04 A2994 RMK A01 T00440041  RH  098%=      5-min Rain = 0
KST4 160526Z 12009KT 04/04 A2994 RMK A01 T00440041  RH  098%=      5-min Rain = 0
KST4 160527Z 12009KT 04/04 A2995 RMK A01 T00440041  RH  098%=      5-min Rain = 0
KST4 160528Z 13008KT 04/04 A2995 RMK A01 T00440041  RH  098%=      5-min Rain = 0
KST4 160529Z 12007KT 04/04 A2995 RMK A01 T00440041  RH  098%=      5-min Rain = 0
KST4 160530Z 12008KT 04/04 A2995 RMK A01 T00440041  RH  098%=      5-min Rain = 0
KST4 160531Z 12008KT 04/04 A2995 RMK A01 T00440041  RH  098%=      5-min Rain = 0
KST4 160532Z 12008KT 05/04 A2995 RMK A01 T00450041  RH  098%=      5-min Rain = 0
KST4 160533Z 12009KT 04/04 A2995 RMK A01 T00440041  RH  098%=      5-min Rain = 0
KST4 160534Z 12009KT 05/04 A2995 RMK A01 T00450041  RH  098%=      5-min Rain = 0
KST4 160535Z 12008KT 05/04 A2995 RMK A01 T00450041  RH  098%=      5-min Rain = 0
KST4 160536Z 12007KT 05/04 A2995 RMK A01 T00450041  RH  098%=      5-min Rain = 0
KST4 160537Z 12007KT 05/04 A2995 RMK A01 T00450041  RH  098%=      5-min Rain = 0
KST4 160538Z 12007KT 05/04 A2995 RMK A01 T00450042  RH  098%=      5-min Rain = 0
KST4 160539Z 12007KT 05/04 A2995 RMK A01 T00450042  RH  098%=      5-min Rain = 0
KST4 160540Z 12008KT 05/04 A2995 RMK A01 T00450041  RH  098%=      5-min Rain = 0
KST4 160541Z 12008KT 05/04 A2995 RMK A01 T00450041  RH  098%=      5-min Rain = 0
KST4 160542Z 11007KT 05/04 A2995 RMK A01 T00450041  RH  098%=      5-min Rain = 0
KST4 160543Z 12007KT 05/04 A2995 RMK A01 T00450042  RH  098%=      5-min Rain = 0
KST4 160544Z 11006KT 05/04 A2996 RMK A01 T00450042  RH  098%=      5-min Rain = 0
KST4 160545Z 11007KT 05/04 A2996 RMK A01 T00450042  RH  098%=      5-min Rain = 0
KST4 160546Z 11008KT 05/04 A2996 RMK A01 T00450042  RH  098%=      5-min Rain = 0
KST4 160547Z 10008KT 05/04 A2995 RMK A01 T00450042  RH  098%=      5-min Rain = 0
KST4 160548Z 10010KT 05/04 A2995 RMK A01 T00450042  RH  098%=      5-min Rain = 0
KST4 160549Z 10009KT 05/04 A2995 RMK A01 T00450041  RH  098%=      5-min Rain = 0
KST4 160550Z 10010KT 05/04 A2994 RMK A01 T00460042  RH  098%=      5-min Rain = 0
KST4 160551Z 10010KT 05/04 A2994 RMK A01 T00450042  RH  098%=      5-min Rain = 0
KST4 160552Z 10011KT 05/04 A2994 RMK A01 T00450042  RH  098%=      5-min Rain = 0
KST4 160553Z 10012KT 05/04 A2994 RMK A01 T00450042  RH  098%=      5-min Rain = 0
KST4 160554Z 10011KT 05/04 A2994 RMK A01 T00450042  RH  098%=      5-min Rain = 0
KST4 160555Z 10012KT 05/04 A2994 RMK A01 T00450042  RH  098%=      5-min Rain = 0
KST4 160556Z 10011KT 05/04 A2994 RMK A01 T00450041  RH  098%=      5-min Rain = 0
KST4 160557Z 10010KT 05/04 A2994 RMK A01 T00450042  RH  098%=      5-min Rain = 0
KST4 160558Z 10009KT 05/04 A2994 RMK A01 T00450042  RH  098%=      5-min Rain = 0
KST4 160559Z 10009KT 05/04 A2994 RMK A01 T00450042  RH  098%=      5-min Rain = 0
KST4 160600Z 09010KT 05/04 A2994 RMK A01 T00450042  RH  098%=      5-min Rain = 0
KST4 160601Z 10010KT 05/04 A2994 RMK A01 T00450042  RH  098%=      5-min Rain = 0
KST4 160602Z 09010KT 05/04 A2994 RMK A01 T00450042  RH  098%=      5-min Rain = 0
KST4 160603Z 10010KT 05/04 A2994 RMK A01 T00450042  RH  098%=      5-min Rain = 0
KST4 160604Z 10010KT 05/04 A2994 RMK A01 T00450042  RH  098%=      5-min Rain = 0
KST4 160605Z 10011KT 05/04 A2994 RMK A01 T00450042  RH  098%=      5-min Rain = 0
KST4 160606Z 10012KT 05/04 A2994 RMK A01 T00450042  RH  098%=      5-min Rain = 0
KST4 160607Z 10011KT 05/04 A2994 RMK A01 T00450041  RH  098%=      5-min Rain = 0
KST4 160608Z 10011KT 05/04 A2994 RMK A01 T00450041  RH  098%=      5-min Rain = 0
KST4 160609Z 10011KT 05/04 A2994 RMK A01 T00450041  RH  098%=      5-min Rain = 0
KST4 160610Z 10010KT 05/04 A2994 RMK A01 T00450041  RH  098%=      5-min Rain = 0
KST4 160611Z 10011KT 04/04 A2994 RMK A01 T00440041  RH  098%=      5-min Rain = 0
KST4 160612Z 10011KT 04/04 A2994 RMK A01 T00440041  RH  098%=      5-min Rain = 0
KST4 160613Z 10008KT 04/04 A2994 RMK A01 T00440041  RH  098%=      5-min Rain = 0
KST4 160614Z 10009KT 04/04 A2994 RMK A01 T00440041  RH  098%=      5-min Rain = 0
KST4 160615Z 10010KT 04/04 A2994 RMK A01 T00440041  RH  098%=      5-min Rain = 0
KST4 160616Z 10010KT 04/04 A2994 RMK A01 T00440041  RH  098%=      5-min Rain = 0
KST4 160617Z 11010KT 04/04 A2994 RMK A01 T00440041  RH  098%=      5-min Rain = 0
KST4 160618Z 10009KT 04/04 A2994 RMK A01 T00440041  RH  098%=      5-min Rain = 0
KST4 160619Z 10011KT 04/04 A2994 RMK A01 T00440041  RH  098%=      5-min Rain = 0
KST4 160620Z 10011KT 04/04 A2994 RMK A01 T00440041  RH  098%=      5-min Rain = 0
KST4 160621Z 10011KT 04/04 A2994 RMK A01 T00430040  RH  098%=      5-min Rain = 0
KST4 160622Z 10010KT 04/04 A2994 RMK A01 T00440040  RH  098%=      5-min Rain = 0
KST4 160623Z 10008KT 04/04 A2994 RMK A01 T00440041  RH  098%=      5-min Rain = 0
KST4 160624Z 10008KT 04/04 A2994 RMK A01 T00440041  RH  098%=      5-min Rain = 0
KST4 160625Z 09009KT 04/04 A2995 RMK A01 T00440041  RH  098%=      5-min Rain = 0
KST4 160626Z 10009KT 04/04 A2995 RMK A01 T00430040  RH  098%=      5-min Rain = 0
KST4 160627Z 09009KT 04/04 A2995 RMK A01 T00440041  RH  098%=      5-min Rain = 0
KST4 160628Z 10008KT 04/04 A2995 RMK A01 T00430040  RH  098%=      5-min Rain = 0
KST4 160629Z 09008KT 04/04 A2995 RMK A01 T00440041  RH  098%=      5-min Rain = 0
KST4 160630Z 09010KT 04/04 A2995 RMK A01 T00440041  RH  098%=      5-min Rain = 0
KST4 160631Z 09010KT 04/04 A2995 RMK A01 T00430040  RH  098%=      5-min Rain = 0
KST4 160632Z 09009KT 04/04 A2995 RMK A01 T00430040  RH  098%=      5-min Rain = 0
KST4 160633Z 09010KT 04/04 A2995 RMK A01 T00430040  RH  098%=      5-min Rain = 0
KST4 160634Z 09007KT 04/04 A2995 RMK A01 T00430040  RH  098%=      5-min Rain = 0
KST4 160635Z 09008KT 04/04 A2995 RMK A01 T00430040  RH  098%=      5-min Rain = 0
KST4 160636Z 09009KT 04/04 A2995 RMK A01 T00430040  RH  098%=      5-min Rain = 0
KST4 160637Z 09008KT 04/04 A2995 RMK A01 T00430040  RH  098%=      5-min Rain = 0
KST4 160638Z 09010KT 04/04 A2995 RMK A01 T00430040  RH  098%=      5-min Rain = 0
KST4 160639Z 10009KT 04/04 A2995 RMK A01 T00420039  RH  098%=      5-min Rain = 0
KST4 160640Z 09011KT 04/04 A2995 RMK A01 T00420039  RH  098%=      5-min Rain = 0
KST4 160641Z 10011KT 04/04 A2995 RMK A01 T00420039  RH  098%=      5-min Rain = 0
KST4 160642Z 10009KT 04/04 A2995 RMK A01 T00410038  RH  098%=      5-min Rain = 0
KST4 160643Z 10009KT 04/04 A2995 RMK A01 T00410038  RH  098%=      5-min Rain = 0
KST4 160644Z 09010KT 04/04 A2995 RMK A01 T00410038  RH  098%=      5-min Rain = 0
KST4 160645Z 09008KT 04/04 A2995 RMK A01 T00420039  RH  098%=      5-min Rain = 0
KST4 160646Z 09010KT 04/04 A2995 RMK A01 T00420039  RH  098%=      5-min Rain = 0
KST4 160647Z 09010KT 04/04 A2995 RMK A01 T00420039  RH  098%=      5-min Rain = 0
KST4 160648Z 09012KT 04/04 A2995 RMK A01 T00420039  RH  098%=      5-min Rain = 0
KST4 160649Z 10011KT 04/04 A2995 RMK A01 T00420039  RH  098%=      5-min Rain = 0
KST4 160650Z 10010KT 04/04 A2995 RMK A01 T00410038  RH  098%=      5-min Rain = 0
KST4 160651Z 10009KT 04/04 A2995 RMK A01 T00410038  RH  098%=      5-min Rain = 0
KST4 160652Z 10008KT 04/04 A2995 RMK A01 T00410038  RH  098%=      5-min Rain = 0
KST4 160653Z 10009KT 04/04 A2995 RMK A01 T00410038  RH  098%=      5-min Rain = 0
KST4 160654Z 10008KT 04/04 A2995 RMK A01 T00420039  RH  098%=      5-min Rain = 0
KST4 160655Z 10007KT 04/04 A2995 RMK A01 T00420039  RH  098%=      5-min Rain = 0
KST4 160656Z 09007KT 04/04 A2995 RMK A01 T00420039  RH  098%=      5-min Rain = 0
KST4 160657Z 09009KT 04/04 A2995 RMK A01 T00420039  RH  098%=      5-min Rain = 0
KST4 160658Z 10010KT 04/04 A2995 RMK A01 T00420039  RH  098%=      5-min Rain = 0
KST4 160659Z 11010KT 04/04 A2995 RMK A01 T00420039  RH  098%=      5-min Rain = 0
KST4 160700Z 10010KT 04/04 A2994 RMK A01 T00420039  RH  098%=      5-min Rain = 0
KST4 160701Z 11010KT 04/04 A2994 RMK A01 T00420038  RH  098%=      5-min Rain = 0
KST4 160702Z 11011KT 04/04 A2994 RMK A01 T00420038  RH  098%=      5-min Rain = 0
KST4 160703Z 12011KT 04/04 A2993 RMK A01 T00420038  RH  098%=      5-min Rain = 0
KST4 160704Z 12012KT 04/04 A2993 RMK A01 T00420038  RH  098%=      5-min Rain = 0
KST4 160705Z 11012KT 04/04 A2993 RMK A01 T00410038  RH  098%=      5-min Rain = 0
KST4 160706Z 12015KT 04/04 A2993 RMK A01 T00410038  RH  098%=      5-min Rain = 0
KST4 160707Z 12013KT 04/04 A2993 RMK A01 T00410038  RH  098%=      5-min Rain = 0
KST4 160708Z 12014KT 04/04 A2993 RMK A01 T00410038  RH  098%=      5-min Rain = 0
KST4 160709Z 13014KT 04/04 A2993 RMK A01 T00410038  RH  098%=      5-min Rain = 0
KST4 160710Z 12012KT 04/04 A2992 RMK A01 T00410038  RH  098%=      5-min Rain = 0
KST4 160711Z 12013KT 04/04 A2992 RMK A01 T00410038  RH  098%=      5-min Rain = 0
KST4 160712Z 12012KT 04/04 A2992 RMK A01 T00410038  RH  098%=      5-min Rain = 0
KST4 160713Z 12011KT 04/04 A2992 RMK A01 T00410038  RH  098%=      5-min Rain = 0
KST4 160714Z 13012KT 04/04 A2992 RMK A01 T00410038  RH  098%=      5-min Rain = 0
KST4 160715Z 13012KT 04/04 A2992 RMK A01 T00410038  RH  098%=      5-min Rain = 0
KST4 160716Z 13012KT 04/04 A2992 RMK A01 T00410038  RH  098%=      5-min Rain = 0
KST4 160717Z 12013KT 04/04 A2992 RMK A01 T00410038  RH  098%=      5-min Rain = 0
KST4 160718Z 12011KT 04/04 A2992 RMK A01 T00410038  RH  098%=      5-min Rain = 0
KST4 160719Z 12010KT 04/04 A2992 RMK A01 T00410038  RH  098%=      5-min Rain = 0
KST4 160720Z 12012KT 04/04 A2992 RMK A01 T00410038  RH  098%=      5-min Rain = 0
KST4 160721Z 12011KT 04/04 A2992 RMK A01 T00410038  RH  098%=      5-min Rain = 0
KST4 160722Z 12011KT 04/04 A2992 RMK A01 T00410038  RH  098%=      5-min Rain = 0
KST4 160723Z 12012KT 04/04 A2992 RMK A01 T00410038  RH  098%=      5-min Rain = 0
KST4 160724Z 12013KT 04/04 A2992 RMK A01 T00410038  RH  098%=      5-min Rain = 0
KST4 160725Z 12011KT 04/04 A2992 RMK A01 T00410038  RH  098%=      5-min Rain = 0
KST4 160726Z 12011KT 04/04 A2992 RMK A01 T00410038  RH  098%=      5-min Rain = 0
KST4 160727Z 11011KT 04/04 A2992 RMK A01 T00410038  RH  098%=      5-min Rain = 0
KST4 160728Z 12012KT 04/04 A2992 RMK A01 T00410038  RH  098%=      5-min Rain = 0
KST4 160729Z 12013KT 04/04 A2992 RMK A01 T00400037  RH  098%=      5-min Rain = 0
KST4 160730Z 12010KT 04/04 A2992 RMK A01 T00400037  RH  098%=      5-min Rain = 0
KST4 160731Z 12009KT 04/04 A2992 RMK A01 T00400037  RH  098%=      5-min Rain = 0
KST4 160732Z 12008KT 04/04 A2992 RMK A01 T00400037  RH  098%=      5-min Rain = 0
KST4 160733Z 11008KT 04/04 A2992 RMK A01 T00400037  RH  098%=      5-min Rain = 0
KST4 160734Z 12011KT 04/04 A2992 RMK A01 T00400037  RH  098%=      5-min Rain = 0
KST4 160735Z 12009KT 04/04 A2992 RMK A01 T00400038  RH  098%=      5-min Rain = 0
KST4 160736Z 12009KT 04/04 A2992 RMK A01 T00400037  RH  098%=      5-min Rain = 0
KST4 160737Z 11009KT 04/04 A2993 RMK A01 T00400038  RH  098%=      5-min Rain = 0
KST4 160738Z 11009KT 04/04 A2993 RMK A01 T00400037  RH  098%=      5-min Rain = 0
KST4 160739Z 12009KT 04/04 A2993 RMK A01 T00400037  RH  098%=      5-min Rain = 0
KST4 160740Z 11008KT 04/04 A2993 RMK A01 T00400037  RH  098%=      5-min Rain = 0
KST4 160741Z 12008KT 04/04 A2993 RMK A01 T00400038  RH  098%=      5-min Rain = 0
KST4 160742Z 12008KT 04/04 A2993 RMK A01 T00400037  RH  098%=      5-min Rain = 0
KST4 160743Z 13009KT 04/04 A2993 RMK A01 T00400038  RH  098%=      5-min Rain = 0
KST4 160744Z 13008KT 04/04 A2993 RMK A01 T00400037  RH  098%=      5-min Rain = 0
KST4 160745Z 12007KT 04/04 A2993 RMK A01 T00400037  RH  098%=      5-min Rain = 0
KST4 160746Z 13008KT 04/04 A2993 RMK A01 T00400037  RH  098%=      5-min Rain = 0
KST4 160747Z 12008KT 04/04 A2993 RMK A01 T00400038  RH  098%=      5-min Rain = 0
KST4 160748Z 12009KT 04/04 A2993 RMK A01 T00400037  RH  098%=      5-min Rain = 0
KST4 160749Z 13009KT 04/04 A2993 RMK A01 T00400038  RH  098%=      5-min Rain = 0
KST4 160750Z 13010KT 04/04 A2993 RMK A01 T00400037  RH  098%=      5-min Rain = 0
KST4 160751Z 12009KT 04/04 A2993 RMK A01 T00400038  RH  098%=      5-min Rain = 0
KST4 160752Z 13009KT 04/04 A2993 RMK A01 T00410038  RH  098%=      5-min Rain = 0
KST4 160753Z 12010KT 04/04 A2993 RMK A01 T00400037  RH  098%=      5-min Rain = 0
KST4 160754Z 13010KT 04/04 A2992 RMK A01 T00400037  RH  098%=      5-min Rain = 0
KST4 160755Z 13009KT 04/04 A2992 RMK A01 T00400037  RH  098%=      5-min Rain = 0
KST4 160756Z 13009KT 04/04 A2992 RMK A01 T00400037  RH  098%=      5-min Rain = 0
KST4 160757Z 13009KT 04/04 A2992 RMK A01 T00410038  RH  098%=      5-min Rain = 0
KST4 160758Z 13009KT 04/04 A2992 RMK A01 T00400037  RH  098%=      5-min Rain = 0
KST4 160759Z 13009KT 04/04 A2992 RMK A01 T00400038  RH  098%=      5-min Rain = 0
KST4 160800Z 13009KT 04/04 A2992 RMK A01 T00410038  RH  098%=      5-min Rain = 0
KST4 160801Z 13010KT 04/04 A2992 RMK A01 T00400038  RH  098%=      5-min Rain = 0
KST4 160802Z 13011KT 04/04 A2992 RMK A01 T00400038  RH  098%=      5-min Rain = 0
KST4 160803Z 13010KT 04/04 A2992 RMK A01 T00400038  RH  098%=      5-min Rain = 0
KST4 160804Z 13008KT 04/04 A2992 RMK A01 T00400037  RH  098%=      5-min Rain = 0
KST4 160805Z 13009KT 04/04 A2992 RMK A01 T00400037  RH  098%=      5-min Rain = 0
KST4 160806Z 13010KT 04/04 A2992 RMK A01 T00400037  RH  098%=      5-min Rain = 0
KST4 160807Z 13010KT 04/04 A2992 RMK A01 T00400037  RH  098%=      5-min Rain = 0
KST4 160808Z 13010KT 04/04 A2992 RMK A01 T00400037  RH  098%=      5-min Rain = 0
KST4 160809Z 13010KT 04/04 A2992 RMK A01 T00400037  RH  098%=      5-min Rain = 0
KST4 160810Z 13011KT 04/04 A2992 RMK A01 T00400037  RH  098%=      5-min Rain = 0
KST4 160811Z 13010KT 04/04 A2992 RMK A01 T00400037  RH  098%=      5-min Rain = 0
KST4 160812Z 12009KT 04/04 A2992 RMK A01 T00400037  RH  098%=      5-min Rain = 0
KST4 160813Z 13009KT 04/04 A2992 RMK A01 T00400037  RH  098%=      5-min Rain = 0
KST4 160814Z 13010KT 04/04 A2992 RMK A01 T00400038  RH  098%=      5-min Rain = 0
KST4 160815Z 12009KT 04/04 A2992 RMK A01 T00400037  RH  098%=      5-min Rain = 0
KST4 160816Z 12010KT 04/04 A2991 RMK A01 T00400038  RH  098%=      5-min Rain = 0
KST4 160817Z 12010KT 04/04 A2991 RMK A01 T00400038  RH  098%=      5-min Rain = 0
KST4 160818Z 12011KT 04/04 A2991 RMK A01 T00400038  RH  098%=      5-min Rain = 0
KST4 160819Z 12010KT 04/04 A2991 RMK A01 T00400038  RH  098%=      5-min Rain = 0
KST4 160820Z 13010KT 04/04 A2991 RMK A01 T00400038  RH  098%=      5-min Rain = 0
KST4 160821Z 13010KT 04/04 A2991 RMK A01 T00400038  RH  098%=      5-min Rain = 0
KST4 160822Z 13010KT 04/04 A2991 RMK A01 T00400038  RH  098%=      5-min Rain = 0
KST4 160823Z 13007KT 04/04 A2991 RMK A01 T00400038  RH  098%=      5-min Rain = 0
KST4 160824Z 13007KT 04/04 A2991 RMK A01 T00400038  RH  098%=      5-min Rain = 0
KST4 160825Z 12006KT 04/04 A2991 RMK A01 T00410038  RH  098%=      5-min Rain = 0
KST4 160826Z 12008KT 04/04 A2991 RMK A01 T00410038  RH  098%=      5-min Rain = 0
KST4 160827Z 13008KT 04/04 A2991 RMK A01 T00410038  RH  098%=      5-min Rain = 0
KST4 160828Z 13007KT 04/04 A2991 RMK A01 T00410038  RH  098%=      5-min Rain = 0
KST4 160829Z 13008KT 04/04 A2991 RMK A01 T00410038  RH  098%=      5-min Rain = 0
KST4 160830Z 13007KT 04/04 A2991 RMK A01 T00410038  RH  098%=      5-min Rain = 0
KST4 160831Z 14008KT 04/04 A2991 RMK A01 T00410038  RH  098%=      5-min Rain = 0
KST4 160832Z 13008KT 04/04 A2991 RMK A01 T00410038  RH  098%=      5-min Rain = 0
KST4 160833Z 13007KT 04/04 A2991 RMK A01 T00410038  RH  098%=      5-min Rain = 0
KST4 160834Z 13007KT 04/04 A2991 RMK A01 T00410038  RH  098%=      5-min Rain = 0
KST4 160835Z 13007KT 04/04 A2992 RMK A01 T00410038  RH  098%=      5-min Rain = 0
KST4 160836Z 13007KT 04/04 A2992 RMK A01 T00410038  RH  098%=      5-min Rain = 0
KST4 160837Z 13007KT 04/04 A2992 RMK A01 T00410038  RH  098%=      5-min Rain = 0
KST4 160838Z 14008KT 04/04 A2992 RMK A01 T00410038  RH  098%=      5-min Rain = 0
KST4 160839Z 14007KT 04/04 A2992 RMK A01 T00410038  RH  098%=      5-min Rain = 0
KST4 160840Z 13007KT 04/04 A2992 RMK A01 T00410039  RH  098%=      5-min Rain = 0
KST4 160841Z 13007KT 04/04 A2992 RMK A01 T00410038  RH  098%=      5-min Rain = 0
KST4 160842Z 13006KT 04/04 A2992 RMK A01 T00410038  RH  098%=      5-min Rain = 0
KST4 160843Z 13006KT 04/04 A2992 RMK A01 T00410038  RH  098%=      5-min Rain = 0
KST4 160844Z 14006KT 04/04 A2992 RMK A01 T00410039  RH  098%=      5-min Rain = 0
KST4 160845Z 13006KT 04/04 A2992 RMK A01 T00410038  RH  098%=      5-min Rain = 0
KST4 160846Z 14006KT 04/04 A2992 RMK A01 T00410038  RH  098%=      5-min Rain = 0
KST4 160847Z 13006KT 04/04 A2992 RMK A01 T00410038  RH  098%=      5-min Rain = 0
KST4 160848Z 12005KT 04/04 A2992 RMK A01 T00410038  RH  098%=      5-min Rain = 0
KST4 160849Z 12006KT 04/04 A2992 RMK A01 T00410039  RH  098%=      5-min Rain = 0
KST4 160850Z 12006KT 04/04 A2992 RMK A01 T00410038  RH  098%=      5-min Rain = 0
KST4 160851Z 12005KT 04/04 A2992 RMK A01 T00410038  RH  098%=      5-min Rain = 0
KST4 160852Z 12006KT 04/04 A2992 RMK A01 T00410038  RH  098%=      5-min Rain = 0
KST4 160853Z 12006KT 04/04 A2992 RMK A01 T00410038  RH  098%=      5-min Rain = 0
KST4 160854Z 13005KT 04/04 A2992 RMK A01 T00410038  RH  098%=      5-min Rain = 0
KST4 160855Z 12005KT 04/04 A2992 RMK A01 T00410038  RH  098%=      5-min Rain = 0
KST4 160856Z 12005KT 04/04 A2992 RMK A01 T00410039  RH  098%=      5-min Rain = 0
KST4 160857Z 12005KT 04/04 A2992 RMK A01 T00410039  RH  098%=      5-min Rain = 0
KST4 160858Z 12005KT 04/04 A2992 RMK A01 T00410039  RH  098%=      5-min Rain = 0
KST4 160859Z 12006KT 04/04 A2992 RMK A01 T00410039  RH  098%=      5-min Rain = 0
KST4 160900Z 12006KT 04/04 A2992 RMK A01 T00410039  RH  098%=      5-min Rain = 0
KST4 160901Z 13006KT 04/04 A2992 RMK A01 T00410039  RH  098%=      5-min Rain = 0
KST4 160902Z 14006KT 04/04 A2992 RMK A01 T00410039  RH  098%=      5-min Rain = 0
KST4 160903Z 13005KT 04/04 A2992 RMK A01 T00410039  RH  098%=      5-min Rain = 0
KST4 160904Z 13005KT 04/04 A2992 RMK A01 T00410039  RH  098%=      5-min Rain = 0
KST4 160905Z 12006KT 04/04 A2991 RMK A01 T00410039  RH  098%=      5-min Rain = 0
KST4 160906Z 12005KT 04/04 A2991 RMK A01 T00410039  RH  098%=      5-min Rain = 0
KST4 160907Z 12005KT 04/04 A2991 RMK A01 T00410039  RH  098%=      5-min Rain = 0
KST4 160908Z 13006KT 04/04 A2991 RMK A01 T00420039  RH  098%=      5-min Rain = 0
KST4 160909Z 13007KT 04/04 A2991 RMK A01 T00420039  RH  098%=      5-min Rain = 0
KST4 160910Z 13007KT 04/04 A2991 RMK A01 T00420039  RH  098%=      5-min Rain = 0
KST4 160911Z 12007KT 04/04 A2991 RMK A01 T00420039  RH  098%=      5-min Rain = 0
KST4 160912Z 12006KT 04/04 A2991 RMK A01 T00420039  RH  098%=      5-min Rain = 0
KST4 160913Z 13006KT 04/04 A2991 RMK A01 T00420039  RH  098%=      5-min Rain = 0
KST4 160914Z 12006KT 04/04 A2991 RMK A01 T00420039  RH  098%=      5-min Rain = 0
KST4 160915Z 13006KT 04/04 A2991 RMK A01 T00420039  RH  098%=      5-min Rain = 0
KST4 160916Z 13006KT 04/04 A2991 RMK A01 T00420039  RH  098%=      5-min Rain = 0
KST4 160917Z 13006KT 04/04 A2991 RMK A01 T00420040  RH  098%=      5-min Rain = 0
KST4 160918Z 13006KT 04/04 A2991 RMK A01 T00420039  RH  098%=      5-min Rain = 0
KST4 160919Z 13005KT 04/04 A2991 RMK A01 T00420039  RH  098%=      5-min Rain = 0
KST4 160920Z 12006KT 04/04 A2991 RMK A01 T00420039  RH  098%=      5-min Rain = 0
KST4 160921Z 12005KT 04/04 A2991 RMK A01 T00410039  RH  098%=      5-min Rain = 0
KST4 160922Z 13005KT 04/04 A2991 RMK A01 T00420039  RH  098%=      5-min Rain = 0
KST4 160923Z 13006KT 04/04 A2991 RMK A01 T00420039  RH  098%=      5-min Rain = 0
KST4 160924Z 13007KT 04/04 A2991 RMK A01 T00420039  RH  098%=      5-min Rain = 0
KST4 160925Z 13007KT 04/04 A2991 RMK A01 T00420039  RH  098%=      5-min Rain = 0
KST4 160926Z 13007KT 04/04 A2991 RMK A01 T00420039  RH  098%=      5-min Rain = 0
KST4 160927Z 13007KT 04/04 A2991 RMK A01 T00420039  RH  098%=      5-min Rain = 0
KST4 160928Z 13007KT 04/04 A2991 RMK A01 T00420039  RH  098%=      5-min Rain = 0
KST4 160929Z 14006KT 04/04 A2991 RMK A01 T00420039  RH  098%=      5-min Rain = 0
KST4 160930Z 14006KT 04/04 A2991 RMK A01 T00420039  RH  098%=      5-min Rain = 0
KST4 160931Z 13007KT 04/04 A2991 RMK A01 T00420039  RH  098%=      5-min Rain = 0
KST4 160932Z 13007KT 04/04 A2991 RMK A01 T00420039  RH  098%=      5-min Rain = 0
KST4 160933Z 13005KT 04/04 A2991 RMK A01 T00410039  RH  098%=      5-min Rain = 0
KST4 160934Z 13005KT 04/04 A2991 RMK A01 T00410039  RH  098%=      5-min Rain = 0
KST4 160935Z 13005KT 04/04 A2991 RMK A01 T00410039  RH  098%=      5-min Rain = 0
KST4 160936Z 13005KT 04/04 A2991 RMK A01 T00410039  RH  098%=      5-min Rain = 0
KST4 160937Z 14006KT 04/04 A2991 RMK A01 T00410039  RH  098%=      5-min Rain = 0
KST4 160938Z 14005KT 04/04 A2991 RMK A01 T00410039  RH  098%=      5-min Rain = 0
KST4 160939Z 14005KT 04/04 A2991 RMK A01 T00410039  RH  098%=      5-min Rain = 0
KST4 160940Z 14005KT 04/04 A2991 RMK A01 T00410039  RH  098%=      5-min Rain = 0
KST4 160941Z 15005KT 04/04 A2991 RMK A01 T00410039  RH  098%=      5-min Rain = 0
KST4 160942Z 15005KT 04/04 A2991 RMK A01 T00410039  RH  098%=      5-min Rain = 0
KST4 160943Z 15004KT 04/04 A2991 RMK A01 T00410039  RH  098%=      5-min Rain = 0
KST4 160944Z 15005KT 04/04 A2991 RMK A01 T00410038  RH  098%=      5-min Rain = 0
KST4 160945Z 14005KT 04/04 A2991 RMK A01 T00410038  RH  098%=      5-min Rain = 0
KST4 160946Z 13004KT 04/04 A2991 RMK A01 T00410038  RH  098%=      5-min Rain = 0
KST4 160947Z 13004KT 04/04 A2991 RMK A01 T00410038  RH  098%=      5-min Rain = 0
KST4 160948Z 13004KT 04/04 A2991 RMK A01 T00410038  RH  098%=      5-min Rain = 0
KST4 160949Z 13003KT 04/04 A2991 RMK A01 T00410038  RH  098%=      5-min Rain = 0
KST4 160950Z 14003KT 04/04 A2991 RMK A01 T00410038  RH  098%=      5-min Rain = 0
KST4 160951Z 13003KT 04/04 A2991 RMK A01 T00410039  RH  098%=      5-min Rain = 0
KST4 160952Z 14003KT 04/04 A2991 RMK A01 T00410039  RH  098%=      5-min Rain = 0
KST4 160953Z 14003KT 04/04 A2991 RMK A01 T00410038  RH  098%=      5-min Rain = 0
KST4 160954Z 12002KT 04/04 A2991 RMK A01 T00410038  RH  098%=      5-min Rain = 0
KST4 160955Z 11003KT 04/04 A2991 RMK A01 T00410038  RH  098%=      5-min Rain = 0
KST4 160956Z 11003KT 04/04 A2991 RMK A01 T00410038  RH  098%=      5-min Rain = 0
KST4 160957Z 12002KT 04/04 A2991 RMK A01 T00410038  RH  098%=      5-min Rain = 0
KST4 160958Z 11003KT 04/04 A2991 RMK A01 T00410039  RH  098%=      5-min Rain = 0
KST4 160959Z 12003KT 04/04 A2991 RMK A01 T00410039  RH  098%=      5-min Rain = 0
KST4 161000Z 12003KT 04/04 A2992 RMK A01 T00410038  RH  098%=      5-min Rain = 0
KST4 161001Z 12002KT 04/04 A2992 RMK A01 T00410038  RH  098%=      5-min Rain = 0
KST4 161002Z 12002KT 04/04 A2992 RMK A01 T00410038  RH  098%=      5-min Rain = 0
KST4 161003Z 11002KT 04/04 A2992 RMK A01 T00410039  RH  098%=      5-min Rain = 0
KST4 161004Z 11002KT 04/04 A2992 RMK A01 T00410039  RH  098%=      5-min Rain = 0
KST4 161005Z 11001KT 04/04 A2992 RMK A01 T00420039  RH  098%=      5-min Rain = 0
KST4 161006Z 09001KT 04/04 A2992 RMK A01 T00410039  RH  098%=      5-min Rain = 0
KST4 161007Z 07000KT 04/04 A2992 RMK A01 T00410039  RH  098%=      5-min Rain = 0
KST4 161008Z 00000KT 04/04 A2992 RMK A01 T00410039  RH  098%=      5-min Rain = 0
KST4 161009Z 00000KT 04/04 A2992 RMK A01 T00410039  RH  098%=      5-min Rain = 0
KST4 161010Z 04000KT 04/04 A2992 RMK A01 T00410039  RH  098%=      5-min Rain = 0
KST4 161011Z 05001KT 04/04 A2992 RMK A01 T00410039  RH  098%=      5-min Rain = 0
KST4 161012Z 06001KT 04/04 A2992 RMK A01 T00410039  RH  098%=      5-min Rain = 0
KST4 161013Z 07001KT 04/04 A2992 RMK A01 T00420039  RH  098%=      5-min Rain = 0
KST4 161014Z 09001KT 04/04 A2992 RMK A01 T00410039  RH  098%=      5-min Rain = 0
KST4 161015Z 09001KT 04/04 A2992 RMK A01 T00410039  RH  098%=      5-min Rain = 0
KST4 161016Z 00000KT 04/04 A2992 RMK A01 T00410039  RH  098%=      5-min Rain = 0
KST4 161017Z 00000KT 04/04 A2992 RMK A01 T00410039  RH  098%=      5-min Rain = 0
KST4 161018Z 08000KT 04/04 A2992 RMK A01 T00410039  RH  098%=      5-min Rain = 0
KST4 161019Z 07000KT 04/04 A2992 RMK A01 T00410039  RH  098%=      5-min Rain = 0
KST4 161020Z 00000KT 04/04 A2992 RMK A01 T00410039  RH  098%=      5-min Rain = 0
KST4 161021Z 00000KT 04/04 A2992 RMK A01 T00410039  RH  098%=      5-min Rain = 0
KST4 161022Z 03000KT 04/04 A2992 RMK A01 T00410039  RH  098%=      5-min Rain = 0
KST4 161023Z 03001KT 04/04 A2992 RMK A01 T00410039  RH  098%=      5-min Rain = 0
KST4 161024Z 03001KT 04/04 A2992 RMK A01 T00420039  RH  098%=      5-min Rain = 0
KST4 161025Z 03001KT 04/04 A2992 RMK A01 T00420040  RH  098%=      5-min Rain = 0
KST4 161026Z 05001KT 04/04 A2992 RMK A01 T00420039  RH  098%=      5-min Rain = 0
KST4 161027Z 04001KT 04/04 A2993 RMK A01 T00420039  RH  098%=      5-min Rain = 0
KST4 161028Z 02001KT 04/04 A2993 RMK A01 T00420040  RH  098%=      5-min Rain = 0
KST4 161029Z 01001KT 04/04 A2993 RMK A01 T00420039  RH  098%=      5-min Rain = 0
KST4 161030Z 01002KT 04/04 A2993 RMK A01 T00420039  RH  098%=      5-min Rain = 0
KST4 161031Z 00002KT 04/04 A2993 RMK A01 T00420039  RH  098%=      5-min Rain = 0
KST4 161032Z 00001KT 04/04 A2993 RMK A01 T00420040  RH  098%=      5-min Rain = 0
KST4 161033Z 02001KT 04/04 A2993 RMK A01 T00420040  RH  098%=      5-min Rain = 0
KST4 161034Z 01001KT 04/04 A2993 RMK A01 T00420039  RH  098%=      5-min Rain = 0
KST4 161035Z 03001KT 04/04 A2993 RMK A01 T00420040  RH  098%=      5-min Rain = 0
KST4 161036Z 02001KT 04/04 A2993 RMK A01 T00420039  RH  098%=      5-min Rain = 0
KST4 161037Z 02001KT 04/04 A2993 RMK A01 T00420040  RH  098%=      5-min Rain = 0
KST4 161038Z 35002KT 04/04 A2993 RMK A01 T00420040  RH  098%=      5-min Rain = 0
KST4 161039Z 35003KT 04/04 A2993 RMK A01 T00420039  RH  098%=      5-min Rain = 0
KST4 161040Z 35002KT 04/04 A2993 RMK A01 T00420039  RH  098%=      5-min Rain = 0
KST4 161041Z 35003KT 04/04 A2993 RMK A01 T00420039  RH  098%=      5-min Rain = 0
KST4 161042Z 36003KT 04/04 A2993 RMK A01 T00420040  RH  098%=      5-min Rain = 0
KST4 161043Z 36003KT 04/04 A2993 RMK A01 T00420040  RH  098%=      5-min Rain = 0
KST4 161044Z 36003KT 04/04 A2993 RMK A01 T00420039  RH  098%=      5-min Rain = 0
KST4 161045Z 35003KT 04/04 A2993 RMK A01 T00420039  RH  098%=      5-min Rain = 0
KST4 161046Z 35003KT 04/04 A2993 RMK A01 T00420039  RH  098%=      5-min Rain = 0
KST4 161047Z 34003KT 04/04 A2993 RMK A01 T00420039  RH  098%=      5-min Rain = 0
KST4 161048Z 34004KT 04/04 A2993 RMK A01 T00420040  RH  098%=      5-min Rain = 0
KST4 161049Z 33004KT 04/04 A2993 RMK A01 T00420040  RH  098%=      5-min Rain = 0
KST4 161050Z 34004KT 04/04 A2993 RMK A01 T00420040  RH  098%=      5-min Rain = 0
KST4 161051Z 34003KT 04/04 A2993 RMK A01 T00420040  RH  098%=      5-min Rain = 0
KST4 161052Z 34003KT 04/04 A2993 RMK A01 T00420040  RH  098%=      5-min Rain = 0
KST4 161053Z 34004KT 04/04 A2993 RMK A01 T00420040  RH  098%=      5-min Rain = 0
KST4 161054Z 34005KT 04/04 A2993 RMK A01 T00420040  RH  098%=      5-min Rain = 0
KST4 161055Z 34005KT 04/04 A2993 RMK A01 T00420040  RH  099%=      5-min Rain = 0
KST4 161056Z 34005KT 04/04 A2993 RMK A01 T00420040  RH  099%=      5-min Rain = 0
KST4 161057Z 35005KT 04/04 A2993 RMK A01 T00420040  RH  099%=      5-min Rain = 0
KST4 161058Z 35005KT 04/04 A2994 RMK A01 T00430041  RH  099%=      5-min Rain = 0
KST4 161059Z 35005KT 04/04 A2994 RMK A01 T00430041  RH  098%=      5-min Rain = 0
KST4 161100Z 35005KT 04/04 A2994 RMK A01 T00430040  RH  098%=      5-min Rain = 0
KST4 161101Z 35004KT 04/04 A2994 RMK A01 T00430041  RH  099%=      5-min Rain = 0
KST4 161102Z 34003KT 04/04 A2994 RMK A01 T00430040  RH  098%=      5-min Rain = 0
KST4 161103Z 35003KT 04/04 A2993 RMK A01 T00430040  RH  098%=      5-min Rain = 0
KST4 161104Z 35005KT 04/04 A2993 RMK A01 T00430041  RH  098%=      5-min Rain = 0
KST4 161105Z 35005KT 04/04 A2993 RMK A01 T00430041  RH  098%=      5-min Rain = 0
KST4 161106Z 35006KT 04/04 A2993 RMK A01 T00430041  RH  098%=      5-min Rain = 0
KST4 161107Z 35005KT 04/04 A2993 RMK A01 T00430041  RH  098%=      5-min Rain = 0
KST4 161108Z 36004KT 04/04 A2993 RMK A01 T00430041  RH  098%=      5-min Rain = 0
KST4 161109Z 35005KT 04/04 A2993 RMK A01 T00430041  RH  099%=      5-min Rain = 0
KST4 161110Z 35005KT 04/04 A2993 RMK A01 T00430041  RH  099%=      5-min Rain = 0
KST4 161111Z 35005KT 04/04 A2994 RMK A01 T00430041  RH  099%=      5-min Rain = 0
KST4 161112Z 35006KT 04/04 A2994 RMK A01 T00430041  RH  099%=      5-min Rain = 0
KST4 161113Z 36006KT 04/04 A2994 RMK A01 T00430041  RH  099%=      5-min Rain = 0
KST4 161114Z 36007KT 04/04 A2994 RMK A01 T00430041  RH  099%=      5-min Rain = 0
KST4 161115Z 35007KT 04/04 A2994 RMK A01 T00430041  RH  099%=      5-min Rain = 0
KST4 161116Z 36006KT 04/04 A2994 RMK A01 T00430041  RH  099%=      5-min Rain = 0
KST4 161117Z 36006KT 04/04 A2994 RMK A01 T00430041  RH  099%=      5-min Rain = 0
KST4 161118Z 36007KT 04/04 A2994 RMK A01 T00430041  RH  099%=      5-min Rain = 0
KST4 161119Z 01007KT 04/04 A2994 RMK A01 T00430041  RH  099%=      5-min Rain = 0
KST4 161120Z 01007KT 04/04 A2994 RMK A01 T00420040  RH  099%=      5-min Rain = 0
KST4 161121Z 01008KT 04/04 A2994 RMK A01 T00420040  RH  098%=      5-min Rain = 0
KST4 161122Z 01007KT 04/04 A2994 RMK A01 T00420040  RH  098%=      5-min Rain = 0
KST4 161123Z 01007KT 04/04 A2994 RMK A01 T00420040  RH  099%=      5-min Rain = 0
KST4 161124Z 01006KT 04/04 A2994 RMK A01 T00420040  RH  098%=      5-min Rain = 0
KST4 161125Z 01006KT 04/04 A2994 RMK A01 T00420040  RH  099%=      5-min Rain = 0
KST4 161126Z 01006KT 04/04 A2994 RMK A01 T00420040  RH  099%=      5-min Rain = 0
KST4 161127Z 01005KT 04/04 A2994 RMK A01 T00420040  RH  099%=      5-min Rain = 0
KST4 161128Z 36004KT 04/04 A2994 RMK A01 T00420040  RH  099%=      5-min Rain = 0
KST4 161129Z 00006KT 04/04 A2994 RMK A01 T00420039  RH  099%=      5-min Rain = 0
KST4 161130Z 00006KT 04/04 A2994 RMK A01 T00420040  RH  099%=      5-min Rain = 0
KST4 161131Z 00006KT 04/04 A2994 RMK A01 T00420039  RH  099%=      5-min Rain = 0
KST4 161132Z 00005KT 04/04 A2994 RMK A01 T00420040  RH  099%=      5-min Rain = 0
KST4 161133Z 01007KT 04/04 A2994 RMK A01 T00420040  RH  099%=      5-min Rain = 0
KST4 161134Z 01007KT 04/04 A2994 RMK A01 T00420039  RH  099%=      5-min Rain = 0
KST4 161135Z 00007KT 04/04 A2994 RMK A01 T00410039  RH  099%=      5-min Rain = 0
KST4 161136Z 00006KT 04/04 A2995 RMK A01 T00420039  RH  099%=      5-min Rain = 0
KST4 161137Z 36006KT 04/04 A2995 RMK A01 T00410039  RH  099%=      5-min Rain = 0
KST4 161138Z 00007KT 04/04 A2995 RMK A01 T00410039  RH  099%=      5-min Rain = 0
KST4 161139Z 01007KT 04/04 A2995 RMK A01 T00410039  RH  099%=      5-min Rain = 0.01
KST4 161140Z 00007KT 04/04 A2995 RMK A01 T00410039  RH  099%=      5-min Rain = 0
KST4 161141Z 36006KT 04/04 A2995 RMK A01 T00410039  RH  099%=      5-min Rain = 0
KST4 161142Z 36008KT 04/04 A2995 RMK A01 T00410039  RH  099%=      5-min Rain = 0
KST4 161143Z 36008KT 04/04 A2995 RMK A01 T00410039  RH  099%=      5-min Rain = 0
KST4 161144Z 36008KT 04/04 A2995 RMK A01 T00410039  RH  099%=      5-min Rain = 0
KST4 161145Z 35010KT 04/04 A2995 RMK A01 T00410039  RH  099%=      5-min Rain = 0
KST4 161146Z 35010KT 04/04 A2995 RMK A01 T00410039  RH  099%=      5-min Rain = 0
KST4 161147Z 35009KT 04/04 A2995 RMK A01 T00410039  RH  099%=      5-min Rain = 0
KST4 161148Z 35009KT 04/04 A2995 RMK A01 T00410039  RH  099%=      5-min Rain = 0
KST4 161149Z 35009KT 04/04 A2995 RMK A01 T00410039  RH  099%=      5-min Rain = 0
KST4 161150Z 36009KT 04/04 A2995 RMK A01 T00410039  RH  099%=      5-min Rain = 0
KST4 161151Z 35007KT 04/04 A2995 RMK A01 T00410039  RH  099%=      5-min Rain = 0
KST4 161152Z 36007KT 04/04 A2995 RMK A01 T00410039  RH  099%=      5-min Rain = 0
KST4 161153Z 35006KT 04/04 A2995 RMK A01 T00410039  RH  099%=      5-min Rain = 0
KST4 161154Z 35008KT 04/04 A2995 RMK A01 T00410039  RH  099%=      5-min Rain = 0
KST4 161155Z 35007KT 04/04 A2995 RMK A01 T00410039  RH  099%=      5-min Rain = 0
KST4 161156Z 35006KT 04/04 A2995 RMK A01 T00410039  RH  099%=      5-min Rain = 0
KST4 161157Z 00006KT 04/04 A2995 RMK A01 T00410039  RH  099%=      5-min Rain = 0
KST4 161158Z 00006KT 04/04 A2995 RMK A01 T00410039  RH  099%=      5-min Rain = 0
KST4 161159Z 01006KT 04/04 A2995 RMK A01 T00410039  RH  099%=      5-min Rain = 0
KST4 161200Z 00005KT 04/04 A2995 RMK A01 T00410039  RH  099%=      5-min Rain = 0
KST4 161201Z 01005KT 04/04 A2995 RMK A01 T00410039  RH  099%=      5-min Rain = 0
KST4 161202Z 00005KT 04/04 A2995 RMK A01 T00410039  RH  099%=      5-min Rain = 0
KST4 161203Z 00006KT 04/04 A2995 RMK A01 T00410039  RH  099%=      5-min Rain = 0
KST4 161204Z 01005KT 04/04 A2995 RMK A01 T00410039  RH  099%=      5-min Rain = 0
KST4 161205Z 01005KT 04/04 A2995 RMK A01 T00410039  RH  099%=      5-min Rain = 0
KST4 161206Z 01006KT 04/04 A2995 RMK A01 T00420040  RH  099%=      5-min Rain = 0
KST4 161207Z 00006KT 04/04 A2995 RMK A01 T00420040  RH  099%=      5-min Rain = 0
KST4 161208Z 00006KT 04/04 A2995 RMK A01 T00420040  RH  099%=      5-min Rain = 0
KST4 161209Z 36006KT 04/04 A2995 RMK A01 T00420039  RH  099%=      5-min Rain = 0
KST4 161210Z 36004KT 04/04 A2995 RMK A01 T00420040  RH  099%=      5-min Rain = 0
KST4 161211Z 01005KT 04/04 A2995 RMK A01 T00420040  RH  099%=      5-min Rain = 0
KST4 161212Z 00005KT 04/04 A2995 RMK A01 T00420040  RH  099%=      5-min Rain = 0
KST4 161213Z 00005KT 04/04 A2995 RMK A01 T00420040  RH  099%=      5-min Rain = 0
KST4 161214Z 36006KT 04/04 A2995 RMK A01 T00420040  RH  099%=      5-min Rain = 0
KST4 161215Z 36006KT 04/04 A2996 RMK A01 T00420040  RH  099%=      5-min Rain = 0
KST4 161216Z 01005KT 04/04 A2996 RMK A01 T00420040  RH  099%=      5-min Rain = 0
KST4 161217Z 01006KT 04/04 A2996 RMK A01 T00420040  RH  099%=      5-min Rain = 0
KST4 161218Z 01005KT 04/04 A2996 RMK A01 T00420040  RH  099%=      5-min Rain = 0
KST4 161219Z 01006KT 04/04 A2996 RMK A01 T00420040  RH  099%=      5-min Rain = 0
KST4 161220Z 01007KT 04/04 A2996 RMK A01 T00410039  RH  099%=      5-min Rain = 0
KST4 161221Z 01006KT 04/04 A2996 RMK A01 T00410039  RH  099%=      5-min Rain = 0
KST4 161222Z 01005KT 04/04 A2996 RMK A01 T00410039  RH  099%=      5-min Rain = 0
KST4 161223Z 00007KT 04/04 A2996 RMK A01 T00410039  RH  099%=      5-min Rain = 0
KST4 161224Z 36007KT 04/04 A2996 RMK A01 T00410039  RH  099%=      5-min Rain = 0
KST4 161225Z 36007KT 04/04 A2996 RMK A01 T00410039  RH  099%=      5-min Rain = 0
KST4 161226Z 36006KT 04/04 A2996 RMK A01 T00410039  RH  099%=      5-min Rain = 0
KST4 161227Z 35005KT 04/04 A2996 RMK A01 T00410039  RH  099%=      5-min Rain = 0
KST4 161228Z 36006KT 04/04 A2996 RMK A01 T00410039  RH  099%=      5-min Rain = 0
KST4 161229Z 36006KT 04/04 A2996 RMK A01 T00410039  RH  099%=      5-min Rain = 0
KST4 161230Z 00006KT 04/04 A2996 RMK A01 T00410039  RH  099%=      5-min Rain = 0
KST4 161231Z 00007KT 04/04 A2996 RMK A01 T00410039  RH  099%=      5-min Rain = 0
KST4 161232Z 36007KT 04/04 A2996 RMK A01 T00410039  RH  099%=      5-min Rain = 0
KST4 161233Z 35007KT 04/04 A2996 RMK A01 T00410039  RH  099%=      5-min Rain = 0
KST4 161234Z 35006KT 04/04 A2996 RMK A01 T00410039  RH  099%=      5-min Rain = 0
KST4 161235Z 35006KT 04/04 A2996 RMK A01 T00410039  RH  099%=      5-min Rain = 0
KST4 161236Z 36006KT 04/04 A2996 RMK A01 T00410039  RH  099%=      5-min Rain = 0
KST4 161237Z 35006KT 04/04 A2996 RMK A01 T00410039  RH  099%=      5-min Rain = 0
KST4 161238Z 35008KT 04/04 A2996 RMK A01 T00420039  RH  099%=      5-min Rain = 0
KST4 161239Z 36007KT 04/04 A2996 RMK A01 T00420040  RH  099%=      5-min Rain = 0
KST4 161240Z 35006KT 04/04 A2996 RMK A01 T00420040  RH  099%=      5-min Rain = 0
KST4 161241Z 35007KT 04/04 A2996 RMK A01 T00420039  RH  099%=      5-min Rain = 0
KST4 161242Z 35007KT 04/04 A2996 RMK A01 T00420039  RH  099%=      5-min Rain = 0
KST4 161243Z 36007KT 04/04 A2996 RMK A01 T00410039  RH  099%=      5-min Rain = 0
KST4 161244Z 35006KT 04/04 A2996 RMK A01 T00410039  RH  099%=      5-min Rain = 0
KST4 161245Z 35007KT 04/04 A2996 RMK A01 T00410039  RH  099%=      5-min Rain = 0
KST4 161246Z 35006KT 04/04 A2996 RMK A01 T00410039  RH  099%=      5-min Rain = 0
KST4 161247Z 35007KT 04/04 A2996 RMK A01 T00420040  RH  099%=      5-min Rain = 0
KST4 161248Z 35007KT 04/04 A2996 RMK A01 T00420040  RH  099%=      5-min Rain = 0
KST4 161249Z 35008KT 04/04 A2997 RMK A01 T00420040  RH  099%=      5-min Rain = 0
KST4 161250Z 35007KT 04/04 A2997 RMK A01 T00420040  RH  099%=      5-min Rain = 0
KST4 161251Z 35007KT 04/04 A2997 RMK A01 T00420040  RH  099%=      5-min Rain = 0
KST4 161252Z 35008KT 04/04 A2997 RMK A01 T00420040  RH  099%=      5-min Rain = 0
KST4 161253Z 35007KT 04/04 A2997 RMK A01 T00420040  RH  099%=      5-min Rain = 0
KST4 161254Z 35007KT 04/04 A2997 RMK A01 T00420040  RH  099%=      5-min Rain = 0
KST4 161255Z 36007KT 04/04 A2997 RMK A01 T00420040  RH  099%=      5-min Rain = 0
KST4 161256Z 36007KT 04/04 A2997 RMK A01 T00420040  RH  099%=      5-min Rain = 0
KST4 161257Z 00008KT 04/04 A2997 RMK A01 T00420040  RH  099%=      5-min Rain = 0
KST4 161258Z 36007KT 04/04 A2997 RMK A01 T00420040  RH  099%=      5-min Rain = 0
KST4 161259Z 00010KT 04/04 A2997 RMK A01 T00420040  RH  099%=      5-min Rain = 0
KST4 161300Z 36008KT 04/04 A2997 RMK A01 T00420040  RH  098%=      5-min Rain = 0
KST4 161301Z 00007KT 04/04 A2997 RMK A01 T00420040  RH  098%=      5-min Rain = 0
KST4 161302Z 36007KT 04/04 A2997 RMK A01 T00420039  RH  098%=      5-min Rain = 0
KST4 161303Z 36008KT 04/04 A2997 RMK A01 T00420039  RH  098%=      5-min Rain = 0
KST4 161304Z 36008KT 04/04 A2997 RMK A01 T00420040  RH  098%=      5-min Rain = 0
KST4 161305Z 36008KT 04/04 A2997 RMK A01 T00420039  RH  098%=      5-min Rain = 0
KST4 161306Z 36007KT 04/04 A2998 RMK A01 T00420040  RH  098%=      5-min Rain = 0
KST4 161307Z 36006KT 04/04 A2998 RMK A01 T00410039  RH  098%=      5-min Rain = 0
KST4 161308Z 35007KT 04/04 A2998 RMK A01 T00410039  RH  098%=      5-min Rain = 0
KST4 161309Z 00007KT 04/04 A2998 RMK A01 T00410039  RH  098%=      5-min Rain = 0
KST4 161310Z 00007KT 04/04 A2998 RMK A01 T00410039  RH  098%=      5-min Rain = 0
KST4 161311Z 01006KT 04/04 A2998 RMK A01 T00420039  RH  098%=      5-min Rain = 0
KST4 161312Z 01006KT 04/04 A2998 RMK A01 T00410039  RH  098%=      5-min Rain = 0
KST4 161313Z 00005KT 04/04 A2998 RMK A01 T00410039  RH  098%=      5-min Rain = 0
KST4 161314Z 34006KT 04/04 A2998 RMK A01 T00410039  RH  098%=      5-min Rain = 0
KST4 161315Z 34006KT 04/04 A2998 RMK A01 T00420040  RH  098%=      5-min Rain = 0
KST4 161316Z 34006KT 04/04 A2998 RMK A01 T00420039  RH  098%=      5-min Rain = 0
KST4 161317Z 34005KT 04/04 A2998 RMK A01 T00420040  RH  098%=      5-min Rain = 0
KST4 161318Z 33008KT 04/04 A2998 RMK A01 T00420040  RH  098%=      5-min Rain = 0
KST4 161319Z 32007KT 04/04 A2998 RMK A01 T00420040  RH  098%=      5-min Rain = 0
KST4 161320Z 32006KT 04/04 A2998 RMK A01 T00420039  RH  098%=      5-min Rain = 0
KST4 161321Z 32007KT 04/04 A2998 RMK A01 T00420039  RH  098%=      5-min Rain = 0
KST4 161322Z 31007KT 04/04 A2998 RMK A01 T00420039  RH  098%=      5-min Rain = 0
KST4 161323Z 32012KT 04/04 A2998 RMK A01 T00430040  RH  098%=      5-min Rain = 0
KST4 161324Z 31010KT 04/04 A2998 RMK A01 T00420039  RH  097%=      5-min Rain = 0
KST4 161325Z 32011KT 04/04 A2998 RMK A01 T00420038  RH  097%=      5-min Rain = 0
KST4 161326Z 31009KT 04/04 A2998 RMK A01 T00430038  RH  097%=      5-min Rain = 0
KST4 161327Z 31010KT 04/04 A2998 RMK A01 T00440039  RH  096%=      5-min Rain = 0
KST4 161328Z 31012KT 05/04 A2998 RMK A01 T00450038  RH  096%=      5-min Rain = 0
KST4 161329Z 33014KT 04/04 A2998 RMK A01 T00440035  RH  094%=      5-min Rain = 0
KST4 161330Z 33012KT 04/03 A2998 RMK A01 T00440033  RH  093%=      5-min Rain = 0
KST4 161331Z 33012KT 05/03 A2998 RMK A01 T00450033  RH  092%=      5-min Rain = 0
KST4 161332Z 33012KT 05/03 A2998 RMK A01 T00450033  RH  092%=      5-min Rain = 0
KST4 161333Z 33010KT 05/03 A2998 RMK A01 T00460034  RH  092%=      5-min Rain = 0
KST4 161334Z 34012KT 05/04 A2998 RMK A01 T00460036  RH  093%=      5-min Rain = 0
KST4 161335Z 34011KT 05/04 A2998 RMK A01 T00460036  RH  093%=      5-min Rain = 0
KST4 161336Z 34011KT 05/04 A2998 RMK A01 T00470036  RH  093%=      5-min Rain = 0
KST4 161337Z 34011KT 05/04 A2998 RMK A01 T00470036  RH  092%=      5-min Rain = 0
KST4 161338Z 33011KT 05/04 A2998 RMK A01 T00470035  RH  092%=      5-min Rain = 0
KST4 161339Z 33010KT 05/03 A2998 RMK A01 T00470034  RH  091%=      5-min Rain = 0
KST4 161340Z 34009KT 05/03 A2998 RMK A01 T00480033  RH  090%=      5-min Rain = 0
KST4 161341Z 33009KT 05/03 A2998 RMK A01 T00480033  RH  090%=      5-min Rain = 0
KST4 161342Z 33011KT 05/03 A2998 RMK A01 T00480031  RH  089%=      5-min Rain = 0
KST4 161343Z 33009KT 05/03 A2998 RMK A01 T00480030  RH  088%=      5-min Rain = 0
KST4 161344Z 33008KT 05/03 A2999 RMK A01 T00480031  RH  089%=      5-min Rain = 0
KST4 161345Z 33009KT 05/03 A2999 RMK A01 T00480031  RH  088%=      5-min Rain = 0
KST4 161346Z 34008KT 05/03 A2999 RMK A01 T00480030  RH  088%=      5-min Rain = 0
KST4 161347Z 34010KT 05/03 A2999 RMK A01 T00480030  RH  088%=      5-min Rain = 0
KST4 161348Z 33009KT 05/03 A2999 RMK A01 T00480029  RH  087%=      5-min Rain = 0
KST4 161349Z 33008KT 05/03 A2999 RMK A01 T00480030  RH  088%=      5-min Rain = 0
KST4 161350Z 34008KT 05/03 A2999 RMK A01 T00480031  RH  088%=      5-min Rain = 0
KST4 161351Z 33009KT 05/03 A2999 RMK A01 T00480029  RH  087%=      5-min Rain = 0
KST4 161352Z 33010KT 05/03 A2999 RMK A01 T00480028  RH  087%=      5-min Rain = 0
KST4 161353Z 33009KT 05/03 A2999 RMK A01 T00480027  RH  087%=      5-min Rain = 0
KST4 161354Z 33010KT 05/03 A2999 RMK A01 T00480028  RH  087%=      5-min Rain = 0
KST4 161355Z 34009KT 05/03 A2999 RMK A01 T00470028  RH  087%=      5-min Rain = 0
KST4 161356Z 33010KT 05/03 A2999 RMK A01 T00470027  RH  087%=      5-min Rain = 0
KST4 161357Z 33008KT 05/03 A2999 RMK A01 T00470027  RH  087%=      5-min Rain = 0
KST4 161358Z 33007KT 05/03 A2999 RMK A01 T00470029  RH  088%=      5-min Rain = 0
KST4 161359Z 34008KT 05/03 A2999 RMK A01 T00470029  RH  088%=      5-min Rain = 0
KST4 161400Z 34008KT 05/03 A2999 RMK A01 T00470028  RH  088%=      5-min Rain = 0
KST4 161401Z 33010KT 05/03 A2999 RMK A01 T00470029  RH  088%=      5-min Rain = 0
KST4 161402Z 34010KT 05/03 A2999 RMK A01 T00470027  RH  086%=      5-min Rain = 0
KST4 161403Z 34011KT 05/03 A2999 RMK A01 T00470026  RH  086%=      5-min Rain = 0
KST4 161404Z 34009KT 05/03 A2999 RMK A01 T00470025  RH  086%=      5-min Rain = 0
KST4 161405Z 34008KT 05/03 A2999 RMK A01 T00470028  RH  087%=      5-min Rain = 0
KST4 161406Z 34011KT 05/03 A2999 RMK A01 T00470028  RH  088%=      5-min Rain = 0
KST4 161407Z 34010KT 05/03 A2999 RMK A01 T00470028  RH  088%=      5-min Rain = 0
KST4 161408Z 35011KT 05/03 A2999 RMK A01 T00470028  RH  087%=      5-min Rain = 0
KST4 161409Z 34009KT 05/03 A2999 RMK A01 T00470028  RH  087%=      5-min Rain = 0
KST4 161410Z 34011KT 05/03 A2999 RMK A01 T00470029  RH  088%=      5-min Rain = 0
KST4 161411Z 34011KT 05/03 A2999 RMK A01 T00480028  RH  087%=      5-min Rain = 0
KST4 161412Z 34009KT 05/03 A2999 RMK A01 T00480028  RH  087%=      5-min Rain = 0
KST4 161413Z 34012KT 05/03 A2999 RMK A01 T00480028  RH  087%=      5-min Rain = 0
KST4 161414Z 34011KT 05/03 A2999 RMK A01 T00480028  RH  087%=      5-min Rain = 0
KST4 161415Z 34011KT 05/03 A2999 RMK A01 T00480028  RH  087%=      5-min Rain = 0
KST4 161416Z 34010KT 05/03 A2999 RMK A01 T00480029  RH  087%=      5-min Rain = 0
KST4 161417Z 34012KT 05/03 A2999 RMK A01 T00480029  RH  088%=      5-min Rain = 0
KST4 161418Z 34012KT 05/03 A2999 RMK A01 T00480028  RH  087%=      5-min Rain = 0
KST4 161419Z 34013KT 05/03 A30 RMK A01 T00480028  RH  087%=      5-min Rain = 0
KST4 161420Z 34012KT 05/03 A30 RMK A01 T00470027  RH  086%=      5-min Rain = 0
KST4 161421Z 34010KT 05/03 A30 RMK A01 T00470028  RH  087%=      5-min Rain = 0
KST4 161422Z 34009KT 05/03 A30 RMK A01 T00470030  RH  089%=      5-min Rain = 0
KST4 161423Z 35011KT 05/03 A30 RMK A01 T00470031  RH  089%=      5-min Rain = 0
KST4 161424Z 35012KT 05/03 A30 RMK A01 T00470030  RH  089%=      5-min Rain = 0
KST4 161425Z 36012KT 05/03 A30 RMK A01 T00470031  RH  089%=      5-min Rain = 0
KST4 161426Z 00012KT 05/03 A30 RMK A01 T00470033  RH  091%=      5-min Rain = 0
KST4 161427Z 00012KT 05/03 A30 RMK A01 T00460034  RH  092%=      5-min Rain = 0
KST4 161428Z 00013KT 05/04 A30 RMK A01 T00460035  RH  092%=      5-min Rain = 0
KST4 161429Z 00012KT 05/03 A30 RMK A01 T00460033  RH  092%=      5-min Rain = 0
KST4 161430Z 35013KT 05/03 A30 RMK A01 T00460033  RH  092%=      5-min Rain = 0
KST4 161431Z 36012KT 05/03 A30 RMK A01 T00460033  RH  092%=      5-min Rain = 0
KST4 161432Z 36013KT 05/04 A30 RMK A01 T00470035  RH  092%=      5-min Rain = 0
KST4 161433Z 36013KT 05/04 A30 RMK A01 T00470035  RH  092%=      5-min Rain = 0
KST4 161434Z 36015KT 05/04 A30 RMK A01 T00480036  RH  092%=      5-min Rain = 0
KST4 161435Z 36015KT 05/03 A30 RMK A01 T00480034  RH  091%=      5-min Rain = 0
KST4 161436Z 35014KT 05/03 A30 RMK A01 T00480034  RH  091%=      5-min Rain = 0
KST4 161437Z 00013KT 05/04 A3001 RMK A01 T00480035  RH  091%=      5-min Rain = 0
KST4 161438Z 00012KT 05/04 A3001 RMK A01 T00480035  RH  091%=      5-min Rain = 0
KST4 161439Z 35013KT 05/04 A3001 RMK A01 T00480037  RH  092%=      5-min Rain = 0
KST4 161440Z 36013KT 05/04 A3001 RMK A01 T00470036  RH  092%=      5-min Rain = 0
KST4 161441Z 35014KT 05/04 A3001 RMK A01 T00470036  RH  092%=      5-min Rain = 0
KST4 161442Z 36015KT 05/04 A3001 RMK A01 T00460036  RH  093%=      5-min Rain = 0
KST4 161443Z 36015KT 05/04 A3001 RMK A01 T00460035  RH  093%=      5-min Rain = 0
KST4 161444Z 36016G21KT 05/04 A3001 RMK A01 T00450035  RH  093%=      5-min Rain = 0
KST4 161445Z 36018KT 05/04 A3001 RMK A01 T00450035  RH  093%=      5-min Rain = 0
KST4 161446Z 36020KT 04/03 A3001 RMK A01 T00440034  RH  093%=      5-min Rain = 0
KST4 161447Z 36022KT 04/03 A3001 RMK A01 T00430033  RH  093%=      5-min Rain = 0
KST4 161448Z 35020KT 04/03 A3001 RMK A01 T00420031  RH  092%=      5-min Rain = 0
KST4 161449Z 35018KT 04/03 A3001 RMK A01 T00420030  RH  092%=      5-min Rain = 0
KST4 161450Z 35019KT 04/03 A3001 RMK A01 T00420031  RH  093%=      5-min Rain = 0
KST4 161451Z 36018KT 04/03 A3001 RMK A01 T00420032  RH  093%=      5-min Rain = 0
KST4 161452Z 35018KT 04/03 A3001 RMK A01 T00430033  RH  093%=      5-min Rain = 0
KST4 161453Z 35020KT 04/03 A3001 RMK A01 T00440034  RH  093%=      5-min Rain = 0
KST4 161454Z 35020KT 04/03 A3001 RMK A01 T00440033  RH  092%=      5-min Rain = 0
KST4 161455Z 35019KT 05/04 A3002 RMK A01 T00460035  RH  093%=      5-min Rain = 0
KST4 161456Z 35017KT 05/04 A3002 RMK A01 T00490039  RH  093%=      5-min Rain = 0
KST4 161457Z 35017KT 05/04 A3002 RMK A01 T00480036  RH  092%=      5-min Rain = 0
KST4 161458Z 35019KT 05/03 A3002 RMK A01 T00460032  RH  091%=      5-min Rain = 0
KST4 161459Z 35019KT 04/03 A3002 RMK A01 T00440030  RH  090%=      5-min Rain = 0
KST4 161500Z 35019KT 04/03 A3002 RMK A01 T00440030  RH  091%=      5-min Rain = 0
KST4 161501Z 35018KT 05/03 A3002 RMK A01 T00450032  RH  091%=      5-min Rain = 0
KST4 161502Z 35017KT 05/03 A3002 RMK A01 T00460033  RH  091%=      5-min Rain = 0
KST4 161503Z 35017KT 05/03 A3002 RMK A01 T00460033  RH  091%=      5-min Rain = 0
KST4 161504Z 35018KT 05/03 A3002 RMK A01 T00460033  RH  091%=      5-min Rain = 0
KST4 161505Z 35020KT 05/03 A3002 RMK A01 T00450031  RH  091%=      5-min Rain = 0
KST4 161506Z 35021KT 04/03 A3002 RMK A01 T00440031  RH  091%=      5-min Rain = 0
KST4 161507Z 35018KT 04/03 A3002 RMK A01 T00430029  RH  091%=      5-min Rain = 0
KST4 161508Z 35019KT 04/03 A3002 RMK A01 T00430030  RH  091%=      5-min Rain = 0
KST4 161509Z 35018KT 04/03 A3002 RMK A01 T00420029  RH  091%=      5-min Rain = 0
KST4 161510Z 35020KT 04/03 A3002 RMK A01 T00420029  RH  091%=      5-min Rain = 0
KST4 161511Z 35019KT 04/03 A3002 RMK A01 T00420027  RH  090%=      5-min Rain = 0
KST4 161512Z 35015KT 04/03 A3002 RMK A01 T00420029  RH  091%=      5-min Rain = 0
KST4 161513Z 35017KT 04/03 A3003 RMK A01 T00430031  RH  092%=      5-min Rain = 0
KST4 161514Z 35016KT 04/03 A3003 RMK A01 T00430031  RH  092%=      5-min Rain = 0
KST4 161515Z 34017KT 04/03 A3003 RMK A01 T00430031  RH  092%=      5-min Rain = 0
KST4 161516Z 34019KT 04/03 A3003 RMK A01 T00420030  RH  092%=      5-min Rain = 0
KST4 161517Z 35021KT 04/03 A3003 RMK A01 T00410028  RH  091%=      5-min Rain = 0
KST4 161518Z 35021KT 04/03 A3003 RMK A01 T00400027  RH  091%=      5-min Rain = 0
KST4 161519Z 36022KT 04/03 A3003 RMK A01 T00400028  RH  092%=      5-min Rain = 0
KST4 161520Z 36021KT 04/03 A3003 RMK A01 T00400027  RH  091%=      5-min Rain = 0
KST4 161521Z 35018KT 04/03 A3003 RMK A01 T00400027  RH  091%=      5-min Rain = 0
KST4 161522Z 35018KT 04/03 A3003 RMK A01 T00430033  RH  093%=      5-min Rain = 0
KST4 161523Z 00019KT 05/03 A3002 RMK A01 T00450033  RH  092%=      5-min Rain = 0
KST4 161524Z 36019KT 05/03 A3002 RMK A01 T00450032  RH  091%=      5-min Rain = 0
KST4 161525Z 00020KT 05/03 A3003 RMK A01 T00450032  RH  091%=      5-min Rain = 0
KST4 161526Z 36021KT 05/04 A3003 RMK A01 T00470035  RH  092%=      5-min Rain = 0
KST4 161527Z 35020KT 05/04 A3003 RMK A01 T00480035  RH  092%=      5-min Rain = 0
KST4 161528Z 35021KT 05/04 A3003 RMK A01 T00480035  RH  091%=      5-min Rain = 0
KST4 161529Z 34023KT 05/03 A3003 RMK A01 T00450030  RH  090%=      5-min Rain = 0
KST4 161530Z 34021KT 04/03 A3003 RMK A01 T00410026  RH  090%=      5-min Rain = 0
KST4 161531Z 35020KT 04/03 A3003 RMK A01 T00400027  RH  091%=      5-min Rain = 0
KST4 161532Z 35021KT 04/03 A3003 RMK A01 T00390027  RH  091%=      5-min Rain = 0
KST4 161533Z 35020KT 04/03 A3003 RMK A01 T00390026  RH  091%=      5-min Rain = 0
KST4 161534Z 35021KT 04/03 A3003 RMK A01 T00380026  RH  092%=      5-min Rain = 0
KST4 161535Z 35019KT 04/03 A3003 RMK A01 T00380025  RH  091%=      5-min Rain = 0
KST4 161536Z 35020KT 04/03 A3004 RMK A01 T00380025  RH  092%=      5-min Rain = 0
KST4 161537Z 35021KT 04/02 A3004 RMK A01 T00370024  RH  091%=      5-min Rain = 0
KST4 161538Z 34020KT 04/02 A3004 RMK A01 T00360023  RH  091%=      5-min Rain = 0
KST4 161539Z 34020KT 04/02 A3004 RMK A01 T00360023  RH  092%=      5-min Rain = 0
KST4 161540Z 35021KT 04/02 A3004 RMK A01 T00350024  RH  092%=      5-min Rain = 0
KST4 161541Z 35021KT 04/02 A3004 RMK A01 T00360024  RH  092%=      5-min Rain = 0
KST4 161542Z 34021KT 04/02 A3004 RMK A01 T00360023  RH  091%=      5-min Rain = 0
KST4 161543Z 35020KT 04/02 A3004 RMK A01 T00360023  RH  091%=      5-min Rain = 0
KST4 161544Z 35017KT 04/02 A3004 RMK A01 T00360024  RH  091%=      5-min Rain = 0
KST4 161545Z 35018KT 04/03 A3004 RMK A01 T00370025  RH  092%=      5-min Rain = 0
KST4 161546Z 35019G24KT 04/02 A3004 RMK A01 T00380024  RH  091%=      5-min Rain = 0
KST4 161547Z 35019KT 04/02 A3004 RMK A01 T00380023  RH  090%=      5-min Rain = 0
KST4 161548Z 35018G23KT 04/02 A3004 RMK A01 T00380024  RH  091%=      5-min Rain = 0
KST4 161549Z 35017G22KT 04/03 A3004 RMK A01 T00380026  RH  092%=      5-min Rain = 0
KST4 161550Z 36018KT 04/03 A3004 RMK A01 T00390026  RH  091%=      5-min Rain = 0
KST4 161551Z 36020KT 04/03 A3004 RMK A01 T00390025  RH  091%=      5-min Rain = 0
KST4 161552Z 36020KT 04/02 A3004 RMK A01 T00390023  RH  090%=      5-min Rain = 0
KST4 161553Z 36021KT 04/02 A3004 RMK A01 T00370021  RH  089%=      5-min Rain = 0
KST4 161554Z 34021KT 04/02 A3004 RMK A01 T00360020  RH  089%=      5-min Rain = 0
KST4 161555Z 35018KT 04/02 A3004 RMK A01 T00350020  RH  090%=      5-min Rain = 0
KST4 161556Z 34019KT 04/02 A3004 RMK A01 T00350021  RH  091%=      5-min Rain = 0
KST4 161557Z 34017KT 04/02 A3004 RMK A01 T00350019  RH  090%=      5-min Rain = 0
KST4 161558Z 34015KT 04/02 A3005 RMK A01 T00350021  RH  090%=      5-min Rain = 0
KST4 161559Z 34019KT 04/02 A3005 RMK A01 T00350022  RH  091%=      5-min Rain = 0
KST4 161600Z 34020KT 04/02 A3004 RMK A01 T00350020  RH  090%=      5-min Rain = 0
KST4 161601Z 34019KT 04/02 A3005 RMK A01 T00350020  RH  090%=      5-min Rain = 0
KST4 161602Z 34019KT 04/02 A3005 RMK A01 T00360020  RH  089%=      5-min Rain = 0
KST4 161603Z 34018G23KT 04/02 A3005 RMK A01 T00350019  RH  089%=      5-min Rain = 0
KST4 161604Z 34015KT 04/02 A3005 RMK A01 T00360021  RH  090%=      5-min Rain = 0
KST4 161605Z 34017KT 04/02 A3005 RMK A01 T00370022  RH  090%=      5-min Rain = 0
KST4 161606Z 35013G18KT 04/02 A3005 RMK A01 T00380023  RH  090%=      5-min Rain = 0
KST4 161607Z 35015G20KT 04/03 A3005 RMK A01 T00400026  RH  091%=      5-min Rain = 0
KST4 161608Z 35017KT 04/02 A3005 RMK A01 T00400024  RH  089%=      5-min Rain = 0
KST4 161609Z 35014KT 04/02 A3005 RMK A01 T00400023  RH  089%=      5-min Rain = 0
KST4 161610Z 35015KT 04/02 A3005 RMK A01 T00410024  RH  089%=      5-min Rain = 0
KST4 161611Z 35016KT 04/02 A3005 RMK A01 T00400024  RH  089%=      5-min Rain = 0
KST4 161612Z 36016KT 04/02 A3005 RMK A01 T00400023  RH  089%=      5-min Rain = 0
KST4 161613Z 35017KT 04/02 A3005 RMK A01 T00390021  RH  088%=      5-min Rain = 0
KST4 161614Z 35018KT 04/02 A3005 RMK A01 T00380020  RH  088%=      5-min Rain = 0
KST4 161615Z 35017KT 04/02 A3005 RMK A01 T00360019  RH  088%=      5-min Rain = 0
KST4 161616Z 35017KT 04/02 A3005 RMK A01 T00360020  RH  089%=      5-min Rain = 0
KST4 161617Z 35017KT 04/02 A3005 RMK A01 T00370020  RH  089%=      5-min Rain = 0
KST4 161618Z 35017KT 04/02 A3005 RMK A01 T00370019  RH  088%=      5-min Rain = 0
KST4 161619Z 35017KT 04/02 A3005 RMK A01 T00370018  RH  087%=      5-min Rain = 0
KST4 161620Z 36016KT 04/02 A3005 RMK A01 T00360017  RH  087%=      5-min Rain = 0
KST4 161621Z 00015KT 04/02 A3005 RMK A01 T00360019  RH  088%=      5-min Rain = 0
KST4 161622Z 36015KT 04/02 A3005 RMK A01 T00370020  RH  089%=      5-min Rain = 0
KST4 161623Z 36016KT 04/02 A3005 RMK A01 T00380021  RH  089%=      5-min Rain = 0
KST4 161624Z 36018KT 04/02 A3005 RMK A01 T00370018  RH  087%=      5-min Rain = 0
KST4 161625Z 35018KT 04/02 A3005 RMK A01 T00360017  RH  087%=      5-min Rain = 0
KST4 161626Z 35018KT 04/02 A3005 RMK A01 T00360016  RH  087%=      5-min Rain = 0
KST4 161627Z 35017KT 04/02 A3005 RMK A01 T00350015  RH  087%=      5-min Rain = 0
KST4 161628Z 35017KT 04/02 A3005 RMK A01 T00360017  RH  087%=      5-min Rain = 0
KST4 161629Z 36018KT 04/02 A3005 RMK A01 T00360016  RH  087%=      5-min Rain = 0
KST4 161630Z 36017KT 04/02 A3005 RMK A01 T00360017  RH  087%=      5-min Rain = 0
KST4 161631Z 36018KT 04/02 A3005 RMK A01 T00370017  RH  087%=      5-min Rain = 0
KST4 161632Z 00016KT 04/02 A3005 RMK A01 T00370016  RH  086%=      5-min Rain = 0
KST4 161633Z 00016KT 04/02 A3005 RMK A01 T00380018  RH  087%=      5-min Rain = 0
KST4 161634Z 36016KT 04/02 A3005 RMK A01 T00380017  RH  086%=      5-min Rain = 0
KST4 161635Z 35016KT 04/02 A3005 RMK A01 T00370016  RH  086%=      5-min Rain = 0
KST4 161636Z 35017KT 04/02 A3005 RMK A01 T00380018  RH  087%=      5-min Rain = 0
KST4 161637Z 35018KT 04/02 A3005 RMK A01 T00390018  RH  086%=      5-min Rain = 0
KST4 161638Z 35019KT 04/02 A3005 RMK A01 T00390017  RH  086%=      5-min Rain = 0
KST4 161639Z 34019KT 04/02 A3005 RMK A01 T00400019  RH  087%=      5-min Rain = 0
KST4 161640Z 35018KT 04/02 A3005 RMK A01 T00400020  RH  086%=      5-min Rain = 0
KST4 161641Z 34019KT 04/02 A3005 RMK A01 T00420021  RH  086%=      5-min Rain = 0
KST4 161642Z 34017KT 04/02 A3005 RMK A01 T00410017  RH  085%=      5-min Rain = 0
KST4 161643Z 34020KT 04/02 A3005 RMK A01 T00400017  RH  085%=      5-min Rain = 0
KST4 161644Z 35021KT 04/02 A3005 RMK A01 T00400017  RH  085%=      5-min Rain = 0
KST4 161645Z 35020KT 04/02 A3005 RMK A01 T00400016  RH  085%=      5-min Rain = 0
KST4 161646Z 35020KT 04/02 A3005 RMK A01 T00400017  RH  085%=      5-min Rain = 0
KST4 161647Z 34017KT 04/02 A3005 RMK A01 T00400017  RH  085%=      5-min Rain = 0
KST4 161648Z 34017G23KT 04/02 A3005 RMK A01 T00420020  RH  086%=      5-min Rain = 0
KST4 161649Z 35021KT 04/02 A3005 RMK A01 T00420019  RH  085%=      5-min Rain = 0
KST4 161650Z 36019KT 04/02 A3005 RMK A01 T00420017  RH  084%=      5-min Rain = 0
KST4 161651Z 34017KT 04/02 A3005 RMK A01 T00420019  RH  085%=      5-min Rain = 0
KST4 161652Z 34018G24KT 04/02 A3005 RMK A01 T00420020  RH  085%=      5-min Rain = 0
KST4 161653Z 34022KT 04/02 A3005 RMK A01 T00430019  RH  084%=      5-min Rain = 0
KST4 161654Z 34021KT 04/02 A3005 RMK A01 T00420015  RH  083%=      5-min Rain = 0
KST4 161655Z 34019KT 04/02 A3005 RMK A01 T00410015  RH  084%=      5-min Rain = 0
KST4 161656Z 35022KT 04/02 A3005 RMK A01 T00410017  RH  084%=      5-min Rain = 0
KST4 161657Z 35023KT 04/02 A3005 RMK A01 T00420015  RH  083%=      5-min Rain = 0
KST4 161658Z 35021KT 04/01 A3005 RMK A01 T00400013  RH  082%=      5-min Rain = 0
KST4 161659Z 35020G25KT 04/01 A3005 RMK A01 T00400014  RH  083%=      5-min Rain = 0
KST4 161700Z 35022KT 04/02 A3005 RMK A01 T00410015  RH  084%=      5-min Rain = 0
KST4 161701Z 35022KT 04/01 A3005 RMK A01 T00410013  RH  082%=      5-min Rain = 0
KST4 161702Z 35019KT 04/01 A3005 RMK A01 T00400013  RH  082%=      5-min Rain = 0
KST4 161703Z 35020G25KT 04/01 A3005 RMK A01 T00400014  RH  083%=      5-min Rain = 0
KST4 161704Z 34020KT 04/02 A3005 RMK A01 T00410015  RH  083%=      5-min Rain = 0
KST4 161705Z 34018G23KT 04/01 A3005 RMK A01 T00420014  RH  082%=      5-min Rain = 0
KST4 161706Z 34023KT 04/01 A3005 RMK A01 T00420014  RH  082%=      5-min Rain = 0
KST4 161707Z 34019G24KT 04/01 A3005 RMK A01 T00410014  RH  082%=      5-min Rain = 0
KST4 161708Z 34020G26KT 04/02 A3005 RMK A01 T00420016  RH  084%=      5-min Rain = 0
KST4 161709Z 34022KT 04/02 A3005 RMK A01 T00420015  RH  082%=      5-min Rain = 0
KST4 161710Z 34020KT 04/02 A3005 RMK A01 T00440016  RH  082%=      5-min Rain = 0
KST4 161711Z 35016G23KT 05/02 A3005 RMK A01 T00460020  RH  083%=      5-min Rain = 0
KST4 161712Z 35022KT 05/02 A3005 RMK A01 T00480019  RH  082%=      5-min Rain = 0
KST4 161713Z 35021G27KT 05/01 A3005 RMK A01 T00460014  RH  080%=      5-min Rain = 0
KST4 161714Z 34024KT 05/02 A3005 RMK A01 T00460015  RH  081%=      5-min Rain = 0
KST4 161715Z 34024KT 05/01 A3006 RMK A01 T00450012  RH  079%=      5-min Rain = 0
KST4 161716Z 35023KT 04/01 A3006 RMK A01 T00430009  RH  078%=      5-min Rain = 0
KST4 161717Z 34022KT 04/01 A3005 RMK A01 T00440010  RH  079%=      5-min Rain = 0
KST4 161718Z 35021KT 04/01 A3005 RMK A01 T00440009  RH  078%=      5-min Rain = 0
KST4 161719Z 35021KT 04/01 A3006 RMK A01 T00440012  RH  080%=      5-min Rain = 0
KST4 161720Z 35018G23KT 04/01 A3006 RMK A01 T00440012  RH  079%=      5-min Rain = 0
KST4 161721Z 35022KT 04/01 A3006 RMK A01 T00440014  RH  080%=      5-min Rain = 0
KST4 161722Z 34023KT 04/01 A3006 RMK A01 T00440012  RH  080%=      5-min Rain = 0
KST4 161723Z 35025KT 04/01 A3006 RMK A01 T00430010  RH  079%=      5-min Rain = 0
KST4 161724Z 34022KT 04/01 A3006 RMK A01 T00420009  RH  079%=      5-min Rain = 0
KST4 161725Z 34022KT 04/01 A3006 RMK A01 T00420010  RH  080%=      5-min Rain = 0
KST4 161726Z 35021KT 04/01 A3006 RMK A01 T00410010  RH  080%=      5-min Rain = 0
KST4 161727Z 35021KT 04/01 A3006 RMK A01 T00410012  RH  081%=      5-min Rain = 0
KST4 161728Z 35024KT 04/01 A3006 RMK A01 T00400010  RH  080%=      5-min Rain = 0
KST4 161729Z 35021KT 04/01 A3006 RMK A01 T00390010  RH  082%=      5-min Rain = 0
KST4 161730Z 35022G27KT 04/01 A3006 RMK A01 T00380010  RH  081%=      5-min Rain = 0
KST4 161731Z 34021G26KT 04/01 A3006 RMK A01 T00390010  RH  082%=      5-min Rain = 0
KST4 161732Z 35022KT 04/01 A3006 RMK A01 T00390010  RH  082%=      5-min Rain = 0
KST4 161733Z 35020KT 04/01 A3006 RMK A01 T00390010  RH  082%=      5-min Rain = 0
KST4 161734Z 35023KT 04/01 A3006 RMK A01 T00390010  RH  081%=      5-min Rain = 0
KST4 161735Z 34018G24KT 04/01 A3006 RMK A01 T00390008  RH  080%=      5-min Rain = 0
KST4 161736Z 34018KT 04/01 A3006 RMK A01 T00400011  RH  082%=      5-min Rain = 0
KST4 161737Z 35020G26KT 04/01 A3006 RMK A01 T00410011  RH  081%=      5-min Rain = 0
KST4 161738Z 34022KT 04/01 A3006 RMK A01 T00410010  RH  080%=      5-min Rain = 0
KST4 161739Z 34022KT 04/01 A3006 RMK A01 T00400010  RH  081%=      5-min Rain = 0
KST4 161740Z 34022KT 04/01 A3006 RMK A01 T00400009  RH  080%=      5-min Rain = 0
KST4 161741Z 35020KT 04/01 A3006 RMK A01 T00400010  RH  081%=      5-min Rain = 0
KST4 161742Z 35021KT 04/01 A3006 RMK A01 T00410011  RH  081%=      5-min Rain = 0
KST4 161743Z 34019KT 04/01 A3006 RMK A01 T00410009  RH  080%=      5-min Rain = 0
KST4 161744Z 34020KT 04/01 A3006 RMK A01 T00400009  RH  080%=      5-min Rain = 0
KST4 161745Z 35022KT 04/01 A3006 RMK A01 T00390008  RH  080%=      5-min Rain = 0
KST4 161746Z 36021KT 04/01 A3006 RMK A01 T00390007  RH  080%=      5-min Rain = 0
KST4 161747Z 35022G27KT 04/01 A3006 RMK A01 T00400008  RH  080%=      5-min Rain = 0
KST4 161748Z 36021G26KT 04/01 A3006 RMK A01 T00410009  RH  079%=      5-min Rain = 0
KST4 161749Z 35022KT 04/01 A3006 RMK A01 T00440011  RH  079%=      5-min Rain = 0
KST4 161750Z 35023KT 05/01 A3006 RMK A01 T00450010  RH  078%=      5-min Rain = 0
KST4 161751Z 36023KT 04/01 A3006 RMK A01 T00440008  RH  077%=      5-min Rain = 0
KST4 161752Z 34019KT 04/01 A3006 RMK A01 T00420007  RH  078%=      5-min Rain = 0
KST4 161753Z 34018KT 04/01 A3006 RMK A01 T00420010  RH  080%=      5-min Rain = 0
KST4 161754Z 34021G28KT 04/01 A3006 RMK A01 T00420010  RH  080%=      5-min Rain = 0
KST4 161755Z 34022KT 04/01 A3006 RMK A01 T00420007  RH  078%=      5-min Rain = 0
KST4 161756Z 34021KT 04/01 A3006 RMK A01 T00410007  RH  078%=      5-min Rain = 0
KST4 161757Z 35024KT 04/01 A3006 RMK A01 T00410008  RH  079%=      5-min Rain = 0
KST4 161758Z 34023KT 04/01 A3006 RMK A01 T00430008  RH  078%=      5-min Rain = 0
KST4 161759Z 34019G24KT 04/01 A3006 RMK A01 T00420007  RH  078%=      5-min Rain = 0
KST4 161800Z 35021KT 04/01 A3006 RMK A01 T00430010  RH  079%=      5-min Rain = 0
KST4 161801Z 36020KT 04/01 A3006 RMK A01 T00430009  RH  078%=      5-min Rain = 0
KST4 161802Z 36020KT 04/01 A3006 RMK A01 T00420007  RH  078%=      5-min Rain = 0
KST4 161803Z 36024KT 04/01 A3006 RMK A01 T00400007  RH  079%=      5-min Rain = 0
KST4 161804Z 35023KT 04/01 A3006 RMK A01 T00390007  RH  080%=      5-min Rain = 0
KST4 161805Z 35021KT 04/01 A3007 RMK A01 T00380006  RH  080%=      5-min Rain = 0
KST4 161806Z 35019G24KT 04/01 A3006 RMK A01 T00380006  RH  080%=      5-min Rain = 0
KST4 161807Z 34020KT 04/01 A3006 RMK A01 T00390007  RH  080%=      5-min Rain = 0
KST4 161808Z 35020G26KT 04/01 A3007 RMK A01 T00410010  RH  080%=      5-min Rain = 0
KST4 161809Z 35021KT 04/01 A3007 RMK A01 T00420009  RH  079%=      5-min Rain = 0
KST4 161810Z 35020KT 04/01 A3007 RMK A01 T00400007  RH  079%=      5-min Rain = 0
KST4 161811Z 35020KT 04/01 A3007 RMK A01 T00400007  RH  079%=      5-min Rain = 0
KST4 161812Z 35018KT 04/01 A3007 RMK A01 T00400008  RH  080%=      5-min Rain = 0
KST4 161813Z 35015KT 04/01 A3007 RMK A01 T00410011  RH  081%=      5-min Rain = 0
KST4 161814Z 34017KT 04/01 A3007 RMK A01 T00430012  RH  080%=      5-min Rain = 0
KST4 161815Z 35022KT 04/01 A3007 RMK A01 T00430011  RH  080%=      5-min Rain = 0
KST4 161816Z 35019KT 04/01 A3007 RMK A01 T00410008  RH  079%=      5-min Rain = 0
KST4 161817Z 35019KT 04/01 A3007 RMK A01 T00390007  RH  080%=      5-min Rain = 0
KST4 161818Z 35018G23KT 04/01 A3007 RMK A01 T00380008  RH  081%=      5-min Rain = 0
KST4 161819Z 35018KT 04/01 A3007 RMK A01 T00400011  RH  082%=      5-min Rain = 0
KST4 161820Z 36017KT 04/01 A3007 RMK A01 T00420012  RH  081%=      5-min Rain = 0
KST4 161821Z 35018KT 04/01 A3007 RMK A01 T00440011  RH  079%=      5-min Rain = 0
KST4 161822Z 36017KT 04/01 A3007 RMK A01 T00440010  RH  079%=      5-min Rain = 0
KST4 161823Z 36019KT 05/01 A3007 RMK A01 T00450009  RH  078%=      5-min Rain = 0
KST4 161824Z 35020KT 04/01 A3007 RMK A01 T00430007  RH  077%=      5-min Rain = 0
KST4 161825Z 35015G20KT 04/01 A3007 RMK A01 T00430007  RH  078%=      5-min Rain = 0
KST4 161826Z 36017KT 04/01 A3007 RMK A01 T00420008  RH  078%=      5-min Rain = 0
KST4 161827Z 35022KT 04/01 A3007 RMK A01 T00430008  RH  078%=      5-min Rain = 0
KST4 161828Z 36021KT 04/01 A3007 RMK A01 T00430006  RH  077%=      5-min Rain = 0
KST4 161829Z 35023KT 04/01 A3007 RMK A01 T00430006  RH  077%=      5-min Rain = 0
KST4 161830Z 36020KT 04/00 A3007 RMK A01 T00420004  RH  076%=      5-min Rain = 0
KST4 161831Z 35020KT 04/01 A3007 RMK A01 T00420005  RH  077%=      5-min Rain = 0
KST4 161832Z 00021KT 04/01 A3007 RMK A01 T00420007  RH  078%=      5-min Rain = 0
KST4 161833Z 00022KT 04/01 A3007 RMK A01 T00410008  RH  079%=      5-min Rain = 0
KST4 161834Z 36020KT 04/01 A3007 RMK A01 T00420009  RH  079%=      5-min Rain = 0
KST4 161835Z 35018KT 04/01 A3007 RMK A01 T00430010  RH  079%=      5-min Rain = 0
KST4 161836Z 36019G25KT 04/01 A3007 RMK A01 T00440010  RH  079%=      5-min Rain = 0
KST4 161837Z 36020KT 04/01 A3007 RMK A01 T00440010  RH  078%=      5-min Rain = 0
KST4 161838Z 00021KT 04/01 A3007 RMK A01 T00440010  RH  079%=      5-min Rain = 0
KST4 161839Z 35022KT 04/01 A3007 RMK A01 T00440011  RH  079%=      5-min Rain = 0
KST4 161840Z 35022KT 05/01 A3007 RMK A01 T00450009  RH  077%=      5-min Rain = 0
KST4 161841Z 35018KT 04/01 A3007 RMK A01 T00440009  RH  078%=      5-min Rain = 0
KST4 161842Z 35018KT 04/01 A3007 RMK A01 T00440010  RH  078%=      5-min Rain = 0
KST4 161843Z 34021KT 04/01 A3007 RMK A01 T00440009  RH  078%=      5-min Rain = 0
KST4 161844Z 35020G25KT 04/01 A3007 RMK A01 T00430009  RH  079%=      5-min Rain = 0
KST4 161845Z 35021KT 04/01 A3007 RMK A01 T00430010  RH  079%=      5-min Rain = 0
KST4 161846Z 35023KT 04/01 A3007 RMK A01 T00440010  RH  079%=      5-min Rain = 0
KST4 161847Z 36019KT 05/01 A3007 RMK A01 T00450012  RH  079%=      5-min Rain = 0
KST4 161848Z 36019G25KT 05/02 A3007 RMK A01 T00510017  RH  079%=      5-min Rain = 0
KST4 161849Z 35019KT 05/01 A3007 RMK A01 T00520013  RH  076%=      5-min Rain = 0
KST4 161850Z 36021G26KT 05/01 A3007 RMK A01 T00490010  RH  076%=      5-min Rain = 0
KST4 161851Z 35023KT 05/01 A3007 RMK A01 T00480010  RH  076%=      5-min Rain = 0
KST4 161852Z 36023KT 05/01 A3007 RMK A01 T00470010  RH  076%=      5-min Rain = 0
KST4 161853Z 35022KT 05/01 A3007 RMK A01 T00480011  RH  077%=      5-min Rain = 0
KST4 161854Z 34024KT 05/01 A3007 RMK A01 T00480009  RH  076%=      5-min Rain = 0
KST4 161855Z 35022KT 05/01 A3007 RMK A01 T00460008  RH  076%=      5-min Rain = 0
KST4 161856Z 34021KT 05/01 A3007 RMK A01 T00450009  RH  077%=      5-min Rain = 0
KST4 161857Z 35019KT 05/01 A3007 RMK A01 T00470012  RH  078%=      5-min Rain = 0
KST4 161858Z 35024KT 05/01 A3007 RMK A01 T00500012  RH  076%=      5-min Rain = 0
KST4 161859Z 36024KT 05/01 A3007 RMK A01 T00490008  RH  075%=      5-min Rain = 0
KST4 161900Z 36022KT 05/01 A3007 RMK A01 T00480009  RH  076%=      5-min Rain = 0
KST4 161901Z 36020KT 05/01 A3007 RMK A01 T00490012  RH  077%=      5-min Rain = 0
KST4 161902Z 35019G24KT 05/01 A3007 RMK A01 T00510012  RH  076%=      5-min Rain = 0
KST4 161903Z 35020G26KT 05/01 A3007 RMK A01 T00540013  RH  075%=      5-min Rain = 0
KST4 161904Z 36021KT 06/01 A3007 RMK A01 T00550011  RH  073%=      5-min Rain = 0
KST4 161905Z 36022KT 05/01 A3007 RMK A01 T00520008  RH  073%=      5-min Rain = 0
KST4 161906Z 35021G26KT 05/01 A3007 RMK A01 T00510008  RH  074%=      5-min Rain = 0
KST4 161907Z 35022KT 05/01 A3007 RMK A01 T00510008  RH  074%=      5-min Rain = 0
KST4 161908Z 35020KT 05/01 A3008 RMK A01 T00510008  RH  074%=      5-min Rain = 0
KST4 161909Z 35017KT 05/01 A3008 RMK A01 T00520011  RH  075%=      5-min Rain = 0
KST4 161910Z 00017KT 05/01 A3008 RMK A01 T00540013  RH  075%=      5-min Rain = 0
KST4 161911Z 01018KT 05/01 A3008 RMK A01 T00530011  RH  074%=      5-min Rain = 0
KST4 161912Z 00024KT 05/01 A3008 RMK A01 T00510008  RH  074%=      5-min Rain = 0
KST4 161913Z 00021KT 05/01 A3008 RMK A01 T00500007  RH  073%=      5-min Rain = 0
KST4 161914Z 36023KT 05/01 A3008 RMK A01 T00510007  RH  073%=      5-min Rain = 0
KST4 161915Z 36022KT 05/01 A3008 RMK A01 T00520006  RH  072%=      5-min Rain = 0
KST4 161916Z 36022KT 05/01 A3008 RMK A01 T00520006  RH  072%=      5-min Rain = 0
KST4 161917Z 36022KT 05/01 A3008 RMK A01 T00520005  RH  072%=      5-min Rain = 0
KST4 161918Z 35017KT 05/01 A3008 RMK A01 T00510005  RH  073%=      5-min Rain = 0
KST4 161919Z 36019KT 05/01 A3008 RMK A01 T00530010  RH  074%=      5-min Rain = 0
KST4 161920Z 35022KT 06/01 A3008 RMK A01 T00550008  RH  071%=      5-min Rain = 0
KST4 161921Z 35021KT 06/01 A3008 RMK A01 T00560005  RH  070%=      5-min Rain = 0
KST4 161922Z 35021KT 05/00 A3008 RMK A01 T00540003  RH  070%=      5-min Rain = 0
KST4 161923Z 35023KT 05/00 A3008 RMK A01 T00540004  RH  070%=      5-min Rain = 0
KST4 161924Z 35022KT 05/01 A3008 RMK A01 T00540005  RH  071%=      5-min Rain = 0
KST4 161925Z 35023G29KT 05/01 A3008 RMK A01 T00540005  RH  071%=      5-min Rain = 0
KST4 161926Z 35021KT 05/00 A3008 RMK A01 T00530003  RH  070%=      5-min Rain = 0
KST4 161927Z 35021KT 05/00 A3008 RMK A01 T00510004  RH  071%=      5-min Rain = 0
KST4 161928Z 35020KT 05/00 A3008 RMK A01 T00510004  RH  072%=      5-min Rain = 0
KST4 161929Z 35021G26KT 05/01 A3008 RMK A01 T00510005  RH  072%=      5-min Rain = 0
KST4 161930Z 34020G25KT 05/00 A3008 RMK A01 T00510002  RH  071%=      5-min Rain = 0
KST4 161931Z 35021KT 05/00 A3008 RMK A01 T00500004  RH  072%=      5-min Rain = 0
KST4 161932Z 35020G25KT 05/00 A3008 RMK A01 T00500004  RH  072%=      5-min Rain = 0
KST4 161933Z 35023KT 05/00 A3007 RMK A01 T00510003  RH  071%=      5-min Rain = 0
KST4 161934Z 35019G24KT 05/00 A3007 RMK A01 T00510004  RH  072%=      5-min Rain = 0
KST4 161935Z 35022KT 05/00 A3007 RMK A01 T00520004  RH  071%=      5-min Rain = 0
KST4 161936Z 35021KT 05/00 A3008 RMK A01 T00510003  RH  071%=      5-min Rain = 0
KST4 161937Z 35022KT 05/00 A3007 RMK A01 T00520004  RH  071%=      5-min Rain = 0
KST4 161938Z 35021KT 05/00 A3007 RMK A01 T00530003  RH  070%=      5-min Rain = 0
KST4 161939Z 35018KT 06/01 A3007 RMK A01 T00560007  RH  071%=      5-min Rain = 0
KST4 161940Z 36021KT 06/01 A3008 RMK A01 T00580006  RH  069%=      5-min Rain = 0
KST4 161941Z 00022KT 06/00 A3008 RMK A01 T00570004  RH  068%=      5-min Rain = 0
KST4 161942Z 36022KT 06/00 A3008 RMK A01 T00560003  RH  069%=      5-min Rain = 0
KST4 161943Z 35021KT 06/00 A3008 RMK A01 T00550001  RH  068%=      5-min Rain = 0
KST4 161944Z 36020KT 06/00 A3008 RMK A01 T00560004  RH  069%=      5-min Rain = 0
KST4 161945Z 35022KT 06/01 A3008 RMK A01 T00600008  RH  069%=      5-min Rain = 0
KST4 161946Z 35023KT 06/00 A3007 RMK A01 T00600003  RH  067%=      5-min Rain = 0
KST4 161947Z 35022KT 06/00 A3008 RMK A01 T00560001  RH  068%=      5-min Rain = 0
KST4 161948Z 36023G28KT 06/00 A3007 RMK A01 T00560002  RH  068%=      5-min Rain = 0
KST4 161949Z 35022KT 06/00 A3007 RMK A01 T00570004  RH  068%=      5-min Rain = 0
KST4 161950Z 35022KT 06/00 A3007 RMK A01 T00590004  RH  068%=      5-min Rain = 0
KST4 161951Z 36020G25KT 06/01 A3007 RMK A01 T00610005  RH  067%=      5-min Rain = 0
KST4 161952Z 35024KT 06/00 A3007 RMK A01 T00640004  RH  065%=      5-min Rain = 0
KST4 161953Z 35024KT 06/00 A3007 RMK A01 T006300-0  RH  064%=      5-min Rain = 0
KST4 161954Z 35020KT 06/00 A3007 RMK A01 T006100-0  RH  065%=      5-min Rain = 0
KST4 161955Z 35021KT 06/00 A3008 RMK A01 T00590001  RH  066%=      5-min Rain = 0
KST4 161956Z 36022KT 06/00 A3008 RMK A01 T00590003  RH  067%=      5-min Rain = 0
KST4 161957Z 00019KT 06/00 A3008 RMK A01 T00580003  RH  068%=      5-min Rain = 0
KST4 161958Z 00021G26KT 06/01 A3008 RMK A01 T00630010  RH  068%=      5-min Rain = 0
KST4 161959Z 35023G29KT 07/01 A3008 RMK A01 T00670006  RH  065%=      5-min Rain = 0
KST4 162000Z 36024KT 07/00 A3008 RMK A01 T00670002  RH  063%=      5-min Rain = 0
KST4 162001Z 36022KT 06/00 A3008 RMK A01 T00640001  RH  064%=      5-min Rain = 0
KST4 162002Z 36022KT 06/00 A3008 RMK A01 T00630003  RH  065%=      5-min Rain = 0
KST4 162003Z 01021KT 06/00 A3008 RMK A01 T00630003  RH  065%=      5-min Rain = 0
KST4 162004Z 00021KT 07/01 A3008 RMK A01 T00660006  RH  066%=      5-min Rain = 0
KST4 162005Z 36020KT 07/00 A3008 RMK A01 T00690003  RH  063%=      5-min Rain = 0
KST4 162006Z 35021KT 07/00 A3008 RMK A01 T00680001  RH  062%=      5-min Rain = 0
KST4 162007Z 00020KT 07/00 A3008 RMK A01 T00660000  RH  063%=      5-min Rain = 0
KST4 162008Z 00019KT 06/00 A3008 RMK A01 T00640001  RH  064%=      5-min Rain = 0
KST4 162009Z 00021KT 06/00 A3008 RMK A01 T00640002  RH  065%=      5-min Rain = 0
KST4 162010Z 00022KT 06/00 A3008 RMK A01 T00630002  RH  065%=      5-min Rain = 0
KST4 162011Z 36022G27KT 06/00 A3008 RMK A01 T006300-0  RH  064%=      5-min Rain = 0
KST4 162012Z 35020KT 06/M00 A3008 RMK A01 T00621001  RH  064%=      5-min Rain = 0
KST4 162013Z 35022KT 06/M00 A3008 RMK A01 T00621001  RH  064%=      5-min Rain = 0
KST4 162014Z 36021KT 06/00 A3008 RMK A01 T006200-0  RH  064%=      5-min Rain = 0
KST4 162015Z 35021KT 06/00 A3008 RMK A01 T00630000  RH  064%=      5-min Rain = 0
KST4 162016Z 36021KT 06/M00 A3008 RMK A01 T00631002  RH  063%=      5-min Rain = 0
KST4 162017Z 36019KT 06/M00 A3008 RMK A01 T00611002  RH  064%=      5-min Rain = 0
KST4 162018Z 36020KT 06/00 A3008 RMK A01 T00600000  RH  066%=      5-min Rain = 0
KST4 162019Z 36022KT 06/00 A3008 RMK A01 T00600001  RH  066%=      5-min Rain = 0
KST4 162020Z 00023KT 06/00 A3008 RMK A01 T00620002  RH  065%=      5-min Rain = 0
KST4 162021Z 36021KT 06/00 A3008 RMK A01 T006300-0  RH  064%=      5-min Rain = 0
KST4 162022Z 36020KT 06/00 A3008 RMK A01 T006300-0  RH  064%=      5-min Rain = 0
KST4 162023Z 36021G27KT 06/M00 A3008 RMK A01 T00641001  RH  063%=      5-min Rain = 0
KST4 162024Z 36023KT 07/M00 A3008 RMK A01 T00651002  RH  062%=      5-min Rain = 0
KST4 162025Z 36019KT 07/01 A3008 RMK A01 T00700005  RH  063%=      5-min Rain = 0
KST4 162026Z 00018G23KT 07/00 A3008 RMK A01 T00730004  RH  061%=      5-min Rain = 0
KST4 162027Z 36022G27KT 07/00 A3008 RMK A01 T00730003  RH  061%=      5-min Rain = 0
KST4 162028Z 36023KT 07/M00 A3008 RMK A01 T00701002  RH  060%=      5-min Rain = 0
KST4 162029Z 36022KT 07/M00 A3008 RMK A01 T00671004  RH  060%=      5-min Rain = 0
KST4 162030Z 01024KT 07/M00 A3008 RMK A01 T00681002  RH  061%=      5-min Rain = 0
KST4 162031Z 00024KT 07/M00 A3008 RMK A01 T00711002  RH  060%=      5-min Rain = 0
KST4 162032Z 36023G28KT 07/M01 A3008 RMK A01 T00711005  RH  059%=      5-min Rain = 0
KST4 162033Z 00021KT 08/01 A3008 RMK A01 T00750006  RH  061%=      5-min Rain = 0
KST4 162034Z 01022KT 08/01 A3008 RMK A01 T00800005  RH  059%=      5-min Rain = 0
KST4 162035Z 01022KT 08/M00 A3008 RMK A01 T00761002  RH  058%=      5-min Rain = 0
KST4 162036Z 01023KT 07/M00 A3008 RMK A01 T00711004  RH  059%=      5-min Rain = 0
KST4 162037Z 36020KT 07/M00 A3008 RMK A01 T00691003  RH  060%=      5-min Rain = 0
KST4 162038Z 36017KT 07/00 A3008 RMK A01 T00710001  RH  061%=      5-min Rain = 0
KST4 162039Z 36021G26KT 08/01 A3008 RMK A01 T00770005  RH  060%=      5-min Rain = 0
KST4 162040Z 00017KT 08/01 A3008 RMK A01 T00810005  RH  059%=      5-min Rain = 0
KST4 162041Z 00024KT 09/01 A3008 RMK A01 T00860006  RH  057%=      5-min Rain = 0
KST4 162042Z 00022KT 08/M00 A3008 RMK A01 T00801002  RH  056%=      5-min Rain = 0
KST4 162043Z 00020KT 08/M00 A3008 RMK A01 T00751004  RH  057%=      5-min Rain = 0
KST4 162044Z 36023KT 07/M01 A3008 RMK A01 T00721005  RH  058%=      5-min Rain = 0
KST4 162045Z 36025KT 07/M01 A3008 RMK A01 T00691006  RH  059%=      5-min Rain = 0
KST4 162046Z 36023KT 07/M01 A3008 RMK A01 T00671005  RH  060%=      5-min Rain = 0
KST4 162047Z 36020KT 07/M01 A3008 RMK A01 T00661006  RH  060%=      5-min Rain = 0
KST4 162048Z 36022KT 07/M01 A3008 RMK A01 T00661005  RH  061%=      5-min Rain = 0
KST4 162049Z 36019KT 07/M01 A3008 RMK A01 T00671006  RH  060%=      5-min Rain = 0
KST4 162050Z 36021G26KT 07/M00 A3007 RMK A01 T00691004  RH  059%=      5-min Rain = 0
KST4 162051Z 00021KT 07/M01 A3007 RMK A01 T00711006  RH  058%=      5-min Rain = 0
KST4 162052Z 00019KT 07/M01 A3008 RMK A01 T00701006  RH  058%=      5-min Rain = 0
KST4 162053Z 35017KT 07/M01 A3008 RMK A01 T00711005  RH  058%=      5-min Rain = 0
KST4 162054Z 36022KT 07/M01 A3008 RMK A01 T00721006  RH  058%=      5-min Rain = 0
KST4 162055Z 35022KT 07/M01 A3008 RMK A01 T00691010  RH  057%=      5-min Rain = 0
KST4 162056Z 36019KT 07/M01 A3008 RMK A01 T00671009  RH  058%=      5-min Rain = 0
KST4 162057Z 00020KT 07/M01 A3008 RMK A01 T00671007  RH  059%=      5-min Rain = 0
KST4 162058Z 36022G27KT 07/M01 A3008 RMK A01 T00671006  RH  060%=      5-min Rain = 0
KST4 162059Z 35023KT 07/M01 A3007 RMK A01 T00661007  RH  060%=      5-min Rain = 0
KST4 162100Z 35020KT 07/M01 A3008 RMK A01 T00661007  RH  060%=      5-min Rain = 0
KST4 162101Z 35021G26KT 07/M00 A3008 RMK A01 T00671004  RH  061%=      5-min Rain = 0
KST4 162102Z 36022KT 07/M00 A3008 RMK A01 T00681004  RH  060%=      5-min Rain = 0
KST4 162103Z 35025KT 07/M01 A3008 RMK A01 T00681007  RH  059%=      5-min Rain = 0
KST4 162104Z 35019KT 07/M01 A3008 RMK A01 T00661011  RH  058%=      5-min Rain = 0
KST4 162105Z 36019KT 07/M01 A3008 RMK A01 T00661010  RH  059%=      5-min Rain = 0
KST4 162106Z 36021KT 07/M01 A3008 RMK A01 T00661009  RH  059%=      5-min Rain = 0
KST4 162107Z 36023KT 07/M01 A3007 RMK A01 T00661009  RH  058%=      5-min Rain = 0
KST4 162108Z 36022KT 07/M01 A3008 RMK A01 T00661011  RH  058%=      5-min Rain = 0
KST4 162109Z 00021G26KT 07/M01 A3008 RMK A01 T00661010  RH  058%=      5-min Rain = 0
KST4 162110Z 00025KT 07/M01 A3008 RMK A01 T00661011  RH  058%=      5-min Rain = 0
KST4 162111Z 00023KT 07/M01 A3008 RMK A01 T00661011  RH  058%=      5-min Rain = 0
KST4 162112Z 00020G25KT 07/M01 A3008 RMK A01 T00661010  RH  059%=      5-min Rain = 0
KST4 162113Z 00023KT 07/M01 A3008 RMK A01 T00661010  RH  058%=      5-min Rain = 0
KST4 162114Z 01022KT 07/M01 A3008 RMK A01 T00661011  RH  058%=      5-min Rain = 0
KST4 162115Z 00022KT 07/M01 A3008 RMK A01 T00661011  RH  058%=      5-min Rain = 0
KST4 162116Z 36020KT 07/M01 A3007 RMK A01 T00661011  RH  058%=      5-min Rain = 0
KST4 162117Z 00022KT 07/M01 A3007 RMK A01 T00661010  RH  058%=      5-min Rain = 0
KST4 162118Z 35022KT 07/M01 A3007 RMK A01 T00661012  RH  057%=      5-min Rain = 0
KST4 162119Z 35022G27KT 07/M01 A3007 RMK A01 T00671012  RH  057%=      5-min Rain = 0
KST4 162120Z 35022KT 07/M01 A3007 RMK A01 T00671014  RH  057%=      5-min Rain = 0
KST4 162121Z 35019KT 07/M01 A3007 RMK A01 T00661012  RH  057%=      5-min Rain = 0
KST4 162122Z 35021G27KT 07/M01 A3007 RMK A01 T00671011  RH  058%=      5-min Rain = 0
KST4 162123Z 35023KT 07/M01 A3007 RMK A01 T00671012  RH  057%=      5-min Rain = 0
KST4 162124Z 35021KT 07/M01 A3007 RMK A01 T00671012  RH  057%=      5-min Rain = 0
KST4 162125Z 36021KT 07/M01 A3007 RMK A01 T00671011  RH  058%=      5-min Rain = 0
KST4 162126Z 00021G26KT 07/M01 A3007 RMK A01 T00671010  RH  058%=      5-min Rain = 0
KST4 162127Z 35022KT 07/M01 A3007 RMK A01 T00681010  RH  058%=      5-min Rain = 0
KST4 162128Z 00020G25KT 07/M01 A3007 RMK A01 T00691009  RH  058%=      5-min Rain = 0
KST4 162129Z 35024KT 07/M01 A3007 RMK A01 T00701008  RH  057%=      5-min Rain = 0
KST4 162130Z 35023G28KT 07/M01 A3007 RMK A01 T00711010  RH  056%=      5-min Rain = 0
KST4 162131Z 35021KT 07/M01 A3007 RMK A01 T00711011  RH  056%=      5-min Rain = 0
KST4 162132Z 36020KT 07/M01 A3007 RMK A01 T00721007  RH  057%=      5-min Rain = 0
KST4 162133Z 35024KT 08/M01 A3007 RMK A01 T00771005  RH  056%=      5-min Rain = 0
KST4 162134Z 36025G30KT 08/M01 A3007 RMK A01 T00791009  RH  054%=      5-min Rain = 0
KST4 162135Z 35023G28KT 08/M01 A3007 RMK A01 T00781011  RH  053%=      5-min Rain = 0
KST4 162136Z 35025KT 08/M01 A3007 RMK A01 T00761010  RH  054%=      5-min Rain = 0
KST4 162137Z 00023KT 07/M01 A3007 RMK A01 T00731011  RH  055%=      5-min Rain = 0
KST4 162138Z 35023KT 07/M01 A3007 RMK A01 T00731010  RH  056%=      5-min Rain = 0
KST4 162139Z 35022KT 07/M01 A3007 RMK A01 T00721012  RH  055%=      5-min Rain = 0
KST4 162140Z 00018G23KT 07/M01 A3007 RMK A01 T00721012  RH  055%=      5-min Rain = 0
KST4 162141Z 00021KT 07/M01 A3007 RMK A01 T00741010  RH  055%=      5-min Rain = 0
KST4 162142Z 36022KT 08/M01 A3007 RMK A01 T00751012  RH  054%=      5-min Rain = 0
KST4 162143Z 00020KT 08/M01 A3007 RMK A01 T00791007  RH  054%=      5-min Rain = 0
KST4 162144Z 35018KT 08/M01 A3007 RMK A01 T00821006  RH  054%=      5-min Rain = 0
KST4 162145Z 36020KT 09/M00 A3007 RMK A01 T00891002  RH  053%=      5-min Rain = 0
KST4 162146Z 01020KT 09/M01 A3007 RMK A01 T00891008  RH  051%=      5-min Rain = 0
KST4 162147Z 01019KT 09/M01 A3007 RMK A01 T00881006  RH  052%=      5-min Rain = 0
KST4 162148Z 00021KT 09/M01 A3007 RMK A01 T00881008  RH  051%=      5-min Rain = 0
KST4 162149Z 00025KT 09/M01 A3007 RMK A01 T00851011  RH  051%=      5-min Rain = 0
KST4 162150Z 00023KT 08/M01 A3007 RMK A01 T00831013  RH  051%=      5-min Rain = 0
KST4 162151Z 36023KT 08/M01 A3007 RMK A01 T00801014  RH  051%=      5-min Rain = 0
KST4 162152Z 36023KT 08/M02 A3007 RMK A01 T00771017  RH  051%=      5-min Rain = 0
KST4 162153Z 35023G29KT 07/M02 A3007 RMK A01 T00741017  RH  052%=      5-min Rain = 0
KST4 162154Z 36023G28KT 07/M02 A3007 RMK A01 T00731015  RH  054%=      5-min Rain = 0
KST4 162155Z 01022KT 07/M01 A3007 RMK A01 T00721013  RH  055%=      5-min Rain = 0
KST4 162156Z 01021KT 07/M01 A3007 RMK A01 T00721012  RH  055%=      5-min Rain = 0
KST4 162157Z 01023KT 07/M01 A3007 RMK A01 T00711013  RH  055%=      5-min Rain = 0
KST4 162158Z 00021KT 07/M01 A3007 RMK A01 T00711011  RH  056%=      5-min Rain = 0
KST4 162159Z 36019KT 07/M01 A3007 RMK A01 T00701011  RH  056%=      5-min Rain = 0
KST4 162200Z 36020G25KT 07/M01 A3007 RMK A01 T00711011  RH  056%=      5-min Rain = 0
KST4 162201Z 01020KT 07/M01 A3008 RMK A01 T00711011  RH  056%=      5-min Rain = 0
KST4 162202Z 01023KT 07/M01 A3008 RMK A01 T00711010  RH  056%=      5-min Rain = 0
KST4 162203Z 35021KT 07/M01 A3008 RMK A01 T00711010  RH  057%=      5-min Rain = 0
KST4 162204Z 35022KT 07/M01 A3008 RMK A01 T00701010  RH  057%=      5-min Rain = 0
KST4 162205Z 36020G25KT 07/M01 A3008 RMK A01 T00701011  RH  056%=      5-min Rain = 0
KST4 162206Z 36019KT 07/M01 A3008 RMK A01 T00701010  RH  057%=      5-min Rain = 0
KST4 162207Z 00023KT 07/M01 A3008 RMK A01 T00711011  RH  056%=      5-min Rain = 0
KST4 162208Z 36021KT 07/M01 A3008 RMK A01 T00711011  RH  056%=      5-min Rain = 0
KST4 162209Z 00020G25KT 07/M01 A3008 RMK A01 T00711010  RH  057%=      5-min Rain = 0
KST4 162210Z 35019KT 07/M01 A3008 RMK A01 T00711009  RH  057%=      5-min Rain = 0
KST4 162211Z 36021G27KT 07/M01 A3008 RMK A01 T00721009  RH  056%=      5-min Rain = 0
KST4 162212Z 01024KT 07/M01 A3008 RMK A01 T00721009  RH  056%=      5-min Rain = 0
KST4 162213Z 01022KT 07/M01 A3008 RMK A01 T00711009  RH  057%=      5-min Rain = 0
KST4 162214Z 01020KT 07/M01 A3008 RMK A01 T00711010  RH  057%=      5-min Rain = 0
KST4 162215Z 36020KT 07/M01 A3008 RMK A01 T00711008  RH  057%=      5-min Rain = 0
KST4 162216Z 01020KT 07/M01 A3008 RMK A01 T00721008  RH  057%=      5-min Rain = 0
KST4 162217Z 00022KT 07/M01 A3008 RMK A01 T00731008  RH  057%=      5-min Rain = 0
KST4 162218Z 00021KT 07/M01 A3008 RMK A01 T00731008  RH  056%=      5-min Rain = 0
KST4 162219Z 00019G24KT 07/M01 A3008 RMK A01 T00721008  RH  057%=      5-min Rain = 0
KST4 162220Z 36020G25KT 07/M01 A3008 RMK A01 T00721008  RH  057%=      5-min Rain = 0
KST4 162221Z 00019G24KT 07/M01 A3008 RMK A01 T00721008  RH  057%=      5-min Rain = 0
KST4 162222Z 01023KT 07/M01 A3008 RMK A01 T00731009  RH  056%=      5-min Rain = 0
KST4 162223Z 01022KT 07/M01 A3008 RMK A01 T00721012  RH  055%=      5-min Rain = 0
KST4 162224Z 00023KT 07/M01 A3008 RMK A01 T00711011  RH  056%=      5-min Rain = 0
KST4 162225Z 00022KT 07/M01 A3008 RMK A01 T00711010  RH  056%=      5-min Rain = 0
KST4 162226Z 01022KT 07/M01 A3008 RMK A01 T00711009  RH  057%=      5-min Rain = 0
KST4 162227Z 00021KT 07/M01 A3008 RMK A01 T00701009  RH  057%=      5-min Rain = 0
KST4 162228Z 01023KT 07/M01 A3008 RMK A01 T00701007  RH  058%=      5-min Rain = 0
KST4 162229Z 00023KT 07/M01 A3008 RMK A01 T00701008  RH  058%=      5-min Rain = 0
KST4 162230Z 00024KT 07/M01 A3008 RMK A01 T00681009  RH  058%=      5-min Rain = 0
KST4 162231Z 00023KT 07/M01 A3008 RMK A01 T00681008  RH  058%=      5-min Rain = 0
KST4 162232Z 36023KT 07/M01 A3008 RMK A01 T00671007  RH  059%=      5-min Rain = 0
KST4 162233Z 36019G24KT 07/M01 A3008 RMK A01 T00671007  RH  059%=      5-min Rain = 0
KST4 162234Z 36019KT 07/M01 A3009 RMK A01 T00681006  RH  059%=      5-min Rain = 0
KST4 162235Z 00020G25KT 07/M01 A3009 RMK A01 T00691006  RH  059%=      5-min Rain = 0
KST4 162236Z 01021KT 07/M01 A3009 RMK A01 T00691008  RH  058%=      5-min Rain = 0
KST4 162237Z 01021KT 07/M01 A3009 RMK A01 T00701009  RH  057%=      5-min Rain = 0
KST4 162238Z 01021KT 07/M01 A3009 RMK A01 T00701009  RH  057%=      5-min Rain = 0
KST4 162239Z 01020KT 07/M01 A3009 RMK A01 T00711009  RH  057%=      5-min Rain = 0
KST4 162240Z 02022KT 07/M01 A3009 RMK A01 T00741008  RH  056%=      5-min Rain = 0
KST4 162241Z 01022KT 07/M01 A3009 RMK A01 T00741011  RH  055%=      5-min Rain = 0
KST4 162242Z 01022KT 07/M01 A3009 RMK A01 T00731011  RH  055%=      5-min Rain = 0
KST4 162243Z 01021KT 07/M01 A3008 RMK A01 T00731011  RH  055%=      5-min Rain = 0
KST4 162244Z 00023KT 07/M01 A3008 RMK A01 T00741008  RH  056%=      5-min Rain = 0
KST4 162245Z 00021KT 07/M01 A3008 RMK A01 T00741011  RH  055%=      5-min Rain = 0
KST4 162246Z 01023KT 07/M01 A3009 RMK A01 T00721010  RH  056%=      5-min Rain = 0
KST4 162247Z 01021KT 07/M01 A3009 RMK A01 T00711011  RH  056%=      5-min Rain = 0
KST4 162248Z 36019KT 07/M01 A3009 RMK A01 T00701010  RH  057%=      5-min Rain = 0
KST4 162249Z 00020KT 07/M01 A3009 RMK A01 T00701009  RH  057%=      5-min Rain = 0
KST4 162250Z 00026KT 07/M01 A3009 RMK A01 T00691010  RH  057%=      5-min Rain = 0
KST4 162251Z 36025KT 07/M01 A3009 RMK A01 T00661012  RH  057%=      5-min Rain = 0
KST4 162252Z 36025KT 06/M01 A3009 RMK A01 T00641013  RH  058%=      5-min Rain = 0
KST4 162253Z 36023KT 06/M01 A3009 RMK A01 T00641014  RH  058%=      5-min Rain = 0
KST4 162254Z 36023KT 06/M02 A3009 RMK A01 T00631016  RH  057%=      5-min Rain = 0
KST4 162255Z 36024KT 06/M02 A3009 RMK A01 T00621017  RH  057%=      5-min Rain = 0
KST4 162256Z 00020G25KT 06/M02 A3009 RMK A01 T00621017  RH  057%=      5-min Rain = 0
KST4 162257Z 00024KT 06/M02 A3009 RMK A01 T00621017  RH  057%=      5-min Rain = 0
KST4 162258Z 00021KT 06/M02 A3009 RMK A01 T00621017  RH  057%=      5-min Rain = 0
KST4 162259Z 00022KT 06/M02 A3009 RMK A01 T00621015  RH  058%=      5-min Rain = 0
KST4 162300Z 00022KT 06/M01 A3009 RMK A01 T00621014  RH  058%=      5-min Rain = 0
KST4 162301Z 36021KT 06/M01 A3009 RMK A01 T00621014  RH  058%=      5-min Rain = 0
KST4 162302Z 00023KT 06/M01 A3009 RMK A01 T00621014  RH  058%=      5-min Rain = 0
KST4 162303Z 00021KT 06/M01 A3009 RMK A01 T00621014  RH  058%=      5-min Rain = 0
KST4 162304Z 36022KT 06/M01 A3009 RMK A01 T00621014  RH  058%=      5-min Rain = 0
KST4 162305Z 00021KT 06/M01 A3009 RMK A01 T00631014  RH  058%=      5-min Rain = 0
KST4 162306Z 00021KT 06/M01 A3009 RMK A01 T00631013  RH  058%=      5-min Rain = 0
KST4 162307Z 00019KT 06/M01 A3009 RMK A01 T00631012  RH  058%=      5-min Rain = 0
KST4 162308Z 00021KT 06/M01 A3009 RMK A01 T00641012  RH  058%=      5-min Rain = 0
KST4 162309Z 00019G24KT 07/M01 A3009 RMK A01 T00651012  RH  058%=      5-min Rain = 0
KST4 162310Z 00020KT 07/M01 A3009 RMK A01 T00661011  RH  058%=      5-min Rain = 0
KST4 162311Z 00018KT 07/M01 A3009 RMK A01 T00661011  RH  058%=      5-min Rain = 0
KST4 162312Z 00016G21KT 07/M01 A3009 RMK A01 T00671010  RH  058%=      5-min Rain = 0
KST4 162313Z 01017KT 07/M01 A3009 RMK A01 T00681010  RH  058%=      5-min Rain = 0
KST4 162314Z 01018KT 07/M01 A3009 RMK A01 T00681011  RH  057%=      5-min Rain = 0
KST4 162315Z 00016KT 07/M01 A3009 RMK A01 T00681012  RH  057%=      5-min Rain = 0
KST4 162316Z 01018G23KT 07/M01 A3009 RMK A01 T00681012  RH  057%=      5-min Rain = 0
KST4 162317Z 01019KT 07/M01 A3009 RMK A01 T00681014  RH  056%=      5-min Rain = 0
KST4 162318Z 00019KT 07/M02 A3009 RMK A01 T00681015  RH  055%=      5-min Rain = 0
KST4 162319Z 01018KT 07/M02 A3009 RMK A01 T00681016  RH  055%=      5-min Rain = 0
KST4 162320Z 02016KT 07/M02 A3009 RMK A01 T00671016  RH  055%=      5-min Rain = 0
KST4 162321Z 01018KT 07/M01 A3009 RMK A01 T00671014  RH  056%=      5-min Rain = 0
KST4 162322Z 00017KT 07/M02 A3009 RMK A01 T00681015  RH  056%=      5-min Rain = 0
KST4 162323Z 36017KT 07/M02 A3009 RMK A01 T00681015  RH  055%=      5-min Rain = 0
KST4 162324Z 36016KT 07/M02 A3009 RMK A01 T00681015  RH  055%=      5-min Rain = 0
KST4 162325Z 35019KT 07/M02 A3009 RMK A01 T00691016  RH  055%=      5-min Rain = 0
KST4 162326Z 35020KT 07/M02 A3009 RMK A01 T00701019  RH  053%=      5-min Rain = 0
KST4 162327Z 36020KT 07/M02 A3009 RMK A01 T00691021  RH  052%=      5-min Rain = 0
KST4 162328Z 35021KT 07/M02 A3009 RMK A01 T00701021  RH  053%=      5-min Rain = 0
KST4 162329Z 35024KT 07/M02 A3009 RMK A01 T00701021  RH  052%=      5-min Rain = 0
KST4 162330Z 36023KT 07/M02 A3009 RMK A01 T00701024  RH  051%=      5-min Rain = 0
KST4 162331Z 00022KT 07/M02 A3009 RMK A01 T00701024  RH  051%=      5-min Rain = 0
KST4 162332Z 00022KT 07/M02 A3009 RMK A01 T00711024  RH  051%=      5-min Rain = 0
KST4 162333Z 36022KT 07/M03 A3009 RMK A01 T00711026  RH  050%=      5-min Rain = 0
KST4 162334Z 00021G26KT 07/M03 A3009 RMK A01 T00711026  RH  050%=      5-min Rain = 0
KST4 162335Z 00018G23KT 07/M03 A3009 RMK A01 T00711027  RH  050%=      5-min Rain = 0
KST4 162336Z 36023KT 07/M03 A3009 RMK A01 T00691027  RH  050%=      5-min Rain = 0
KST4 162337Z 36021KT 07/M03 A301 RMK A01 T00671028  RH  051%=      5-min Rain = 0
KST4 162338Z 36021KT 07/M03 A301 RMK A01 T00651027  RH  052%=      5-min Rain = 0
KST4 162339Z 00019KT 07/M03 A301 RMK A01 T00651026  RH  052%=      5-min Rain = 0
KST4 162340Z 36018KT 06/M03 A301 RMK A01 T00641025  RH  053%=      5-min Rain = 0
KST4 162341Z 36020KT 07/M02 A301 RMK A01 T00651024  RH  053%=      5-min Rain = 0
KST4 162342Z 00019KT 07/M02 A301 RMK A01 T00661022  RH  053%=      5-min Rain = 0
KST4 162343Z 00022KT 07/M02 A301 RMK A01 T00681019  RH  054%=      5-min Rain = 0
KST4 162344Z 00021KT 07/M02 A301 RMK A01 T00691018  RH  054%=      5-min Rain = 0
KST4 162345Z 00021KT 07/M02 A301 RMK A01 T00691020  RH  053%=      5-min Rain = 0
KST4 162346Z 00020KT 07/M02 A301 RMK A01 T00681021  RH  053%=      5-min Rain = 0
KST4 162347Z 00018KT 07/M02 A301 RMK A01 T00671020  RH  054%=      5-min Rain = 0
KST4 162348Z 00017G22KT 07/M02 A301 RMK A01 T00671019  RH  054%=      5-min Rain = 0
KST4 162349Z 00019KT 07/M02 A301 RMK A01 T00661021  RH  054%=      5-min Rain = 0
KST4 162350Z 36019KT 07/M02 A301 RMK A01 T00651023  RH  053%=      5-min Rain = 0
KST4 162351Z 00016KT 06/M02 A301 RMK A01 T00641023  RH  054%=      5-min Rain = 0
KST4 162352Z 01017KT 06/M02 A301 RMK A01 T00641022  RH  054%=      5-min Rain = 0
KST4 162353Z 01017KT 07/M02 A301 RMK A01 T00651021  RH  054%=      5-min Rain = 0
KST4 162354Z 01019KT 07/M02 A301 RMK A01 T00661022  RH  053%=      5-min Rain = 0
KST4 162355Z 01019KT 07/M02 A301 RMK A01 T00661024  RH  053%=      5-min Rain = 0
KST4 162356Z 01019KT 07/M02 A301 RMK A01 T00671024  RH  052%=      5-min Rain = 0
KST4 162357Z 00021G26KT 07/M03 A301 RMK A01 T00661027  RH  051%=      5-min Rain = 0
KST4 162358Z 01021KT 07/M03 A301 RMK A01 T00661029  RH  051%=      5-min Rain = 0
KST4 162359Z 00022KT 07/M03 A301 RMK A01 T00661030  RH  050%=      5-min Rain = 0
KST4 170000Z 00021KT 07/M03 A301 RMK A01 T00661030  RH  051%=      5-min Rain = 0
KST4 170001Z 00019KT 07/M03 A301 RMK A01 T00661030  RH  050%=      5-min Rain = 0
KST4 170002Z 36021KT 07/M03 A301 RMK A01 T00661029  RH  051%=      5-min Rain = 0
KST4 170003Z 00022KT 07/M03 A301 RMK A01 T00661028  RH  051%=      5-min Rain = 0
KST4 170004Z 36024KT 07/M03 A301 RMK A01 T00661027  RH  052%=      5-min Rain = 0
KST4 170005Z 00019G25KT 07/M03 A301 RMK A01 T00651025  RH  052%=      5-min Rain = 0
KST4 170006Z 00023G28KT 07/M02 A301 RMK A01 T00651024  RH  053%=      5-min Rain = 0
KST4 170007Z 36023KT 06/M03 A301 RMK A01 T00641025  RH  053%=      5-min Rain = 0
KST4 170008Z 00022KT 06/M03 A3011 RMK A01 T00631025  RH  054%=      5-min Rain = 0
KST4 170009Z 01021KT 06/M02 A3011 RMK A01 T00621024  RH  054%=      5-min Rain = 0
KST4 170010Z 00020KT 06/M02 A3011 RMK A01 T00621024  RH  054%=      5-min Rain = 0
KST4 170011Z 00018KT 06/M03 A3011 RMK A01 T00621025  RH  054%=      5-min Rain = 0
KST4 170012Z 36016KT 06/M03 A3011 RMK A01 T00621025  RH  054%=      5-min Rain = 0
KST4 170013Z 00018KT 06/M03 A3011 RMK A01 T00621025  RH  054%=      5-min Rain = 0
KST4 170014Z 36017KT 06/M03 A3011 RMK A01 T00621027  RH  053%=      5-min Rain = 0
KST4 170015Z 36017KT 06/M03 A3011 RMK A01 T00621029  RH  052%=      5-min Rain = 0
KST4 170016Z 36016KT 06/M03 A3011 RMK A01 T00621031  RH  052%=      5-min Rain = 0
KST4 170017Z 36019KT 06/M03 A3011 RMK A01 T00621032  RH  051%=      5-min Rain = 0
KST4 170018Z 36021KT 06/M03 A3011 RMK A01 T00621033  RH  051%=      5-min Rain = 0
KST4 170019Z 36018KT 06/M03 A3011 RMK A01 T00621034  RH  050%=      5-min Rain = 0
KST4 170020Z 35017KT 06/M03 A3011 RMK A01 T00621034  RH  050%=      5-min Rain = 0
KST4 170021Z 35016G21KT 06/M03 A3011 RMK A01 T00621033  RH  051%=      5-min Rain = 0
KST4 170022Z 00018G24KT 06/M03 A3011 RMK A01 T00621032  RH  051%=      5-min Rain = 0
KST4 170023Z 00022KT 06/M03 A3011 RMK A01 T00621030  RH  052%=      5-min Rain = 0
KST4 170024Z 36019KT 06/M03 A3011 RMK A01 T00621029  RH  052%=      5-min Rain = 0
KST4 170025Z 36017KT 06/M03 A3011 RMK A01 T00621028  RH  053%=      5-min Rain = 0
KST4 170026Z 35017G23KT 06/M03 A3011 RMK A01 T00621026  RH  053%=      5-min Rain = 0
KST4 170027Z 36022KT 06/M03 A3011 RMK A01 T00621025  RH  054%=      5-min Rain = 0
KST4 170028Z 00020KT 06/M03 A3012 RMK A01 T00611025  RH  054%=      5-min Rain = 0
KST4 170029Z 00020KT 06/M02 A3012 RMK A01 T00611024  RH  054%=      5-min Rain = 0
KST4 170030Z 36018KT 06/M02 A3012 RMK A01 T00611024  RH  055%=      5-min Rain = 0
KST4 170031Z 36020KT 06/M02 A3012 RMK A01 T00601024  RH  055%=      5-min Rain = 0
KST4 170032Z 00021KT 06/M02 A3012 RMK A01 T00601024  RH  055%=      5-min Rain = 0
KST4 170033Z 00018KT 06/M02 A3012 RMK A01 T00601023  RH  055%=      5-min Rain = 0
KST4 170034Z 00016KT 06/M02 A3012 RMK A01 T00601023  RH  055%=      5-min Rain = 0
KST4 170035Z 00017KT 06/M02 A3012 RMK A01 T00591022  RH  056%=      5-min Rain = 0
KST4 170036Z 35018KT 06/M02 A3012 RMK A01 T00591022  RH  056%=      5-min Rain = 0
KST4 170037Z 35018KT 06/M02 A3012 RMK A01 T00591023  RH  056%=      5-min Rain = 0
KST4 170038Z 36016KT 06/M02 A3012 RMK A01 T00591024  RH  055%=      5-min Rain = 0
KST4 170039Z 36016G21KT 06/M02 A3012 RMK A01 T00591024  RH  055%=      5-min Rain = 0
KST4 170040Z 36018KT 06/M02 A3012 RMK A01 T00591024  RH  055%=      5-min Rain = 0
KST4 170041Z 36014KT 06/M02 A3012 RMK A01 T00591023  RH  056%=      5-min Rain = 0
KST4 170042Z 35018KT 06/M02 A3012 RMK A01 T00601021  RH  056%=      5-min Rain = 0
KST4 170043Z 36016KT 06/M02 A3012 RMK A01 T00591023  RH  056%=      5-min Rain = 0
KST4 170044Z 35018KT 06/M02 A3012 RMK A01 T00601023  RH  055%=      5-min Rain = 0
KST4 170045Z 36015KT 06/M02 A3012 RMK A01 T00601024  RH  055%=      5-min Rain = 0
KST4 170046Z 36019KT 06/M02 A3012 RMK A01 T00601023  RH  055%=      5-min Rain = 0
KST4 170047Z 36017KT 06/M02 A3012 RMK A01 T00591024  RH  055%=      5-min Rain = 0
KST4 170048Z 00019KT 06/M02 A3012 RMK A01 T00591024  RH  055%=      5-min Rain = 0
KST4 170049Z 36018G23KT 06/M03 A3012 RMK A01 T00581025  RH  055%=      5-min Rain = 0
KST4 170050Z 35020KT 06/M03 A3012 RMK A01 T00581025  RH  055%=      5-min Rain = 0
KST4 170051Z 35017KT 06/M03 A3012 RMK A01 T00581025  RH  055%=      5-min Rain = 0
KST4 170052Z 35016KT 06/M02 A3012 RMK A01 T00581024  RH  056%=      5-min Rain = 0
KST4 170053Z 36017KT 06/M02 A3012 RMK A01 T00581024  RH  056%=      5-min Rain = 0
KST4 170054Z 36017KT 06/M02 A3012 RMK A01 T00581023  RH  056%=      5-min Rain = 0
KST4 170055Z 36017G23KT 06/M02 A3012 RMK A01 T00581023  RH  056%=      5-min Rain = 0
KST4 170056Z 36019KT 06/M02 A3012 RMK A01 T00581023  RH  056%=      5-min Rain = 0
KST4 170057Z 00020KT 06/M02 A3012 RMK A01 T00581022  RH  056%=      5-min Rain = 0
KST4 170058Z 00019G24KT 06/M02 A3012 RMK A01 T00581023  RH  056%=      5-min Rain = 0
KST4 170059Z 00019KT 06/M02 A3012 RMK A01 T00571023  RH  056%=      5-min Rain = 0
KST4 170100Z 01018KT 06/M02 A3012 RMK A01 T00571022  RH  057%=      5-min Rain = 0
KST4 170101Z 00016G21KT 06/M02 A3012 RMK A01 T00571021  RH  057%=      5-min Rain = 0
KST4 170102Z 36017KT 06/M02 A3012 RMK A01 T00571021  RH  057%=      5-min Rain = 0
KST4 170103Z 00019KT 06/M02 A3012 RMK A01 T00571021  RH  057%=      5-min Rain = 0
KST4 170104Z 36020KT 06/M02 A3012 RMK A01 T00571022  RH  057%=      5-min Rain = 0
KST4 170105Z 00019KT 06/M02 A3012 RMK A01 T00561023  RH  057%=      5-min Rain = 0
KST4 170106Z 36017KT 06/M02 A3012 RMK A01 T00561023  RH  057%=      5-min Rain = 0
KST4 170107Z 00014KT 06/M02 A3012 RMK A01 T00551022  RH  058%=      5-min Rain = 0
KST4 170108Z 01019KT 06/M02 A3012 RMK A01 T00551021  RH  058%=      5-min Rain = 0
KST4 170109Z 00020KT 06/M02 A3012 RMK A01 T00551023  RH  057%=      5-min Rain = 0
KST4 170110Z 00020KT 06/M02 A3012 RMK A01 T00551023  RH  057%=      5-min Rain = 0
KST4 170111Z 36017G24KT 06/M02 A3012 RMK A01 T00551023  RH  057%=      5-min Rain = 0
KST4 170112Z 00020KT 06/M02 A3012 RMK A01 T00551024  RH  057%=      5-min Rain = 0
KST4 170113Z 00019KT 06/M02 A3012 RMK A01 T00551024  RH  057%=      5-min Rain = 0
KST4 170114Z 00020KT 05/M02 A3013 RMK A01 T00541023  RH  057%=      5-min Rain = 0
KST4 170115Z 00020KT 05/M02 A3013 RMK A01 T00541024  RH  057%=      5-min Rain = 0
KST4 170116Z 00018KT 05/M02 A3013 RMK A01 T00531024  RH  057%=      5-min Rain = 0
KST4 170117Z 00017KT 05/M03 A3013 RMK A01 T00521025  RH  057%=      5-min Rain = 0
KST4 170118Z 00016G21KT 05/M02 A3013 RMK A01 T00521024  RH  058%=      5-min Rain = 0
KST4 170119Z 01019KT 05/M02 A3013 RMK A01 T00521024  RH  058%=      5-min Rain = 0
KST4 170120Z 01018KT 05/M02 A3013 RMK A01 T00521023  RH  058%=      5-min Rain = 0
KST4 170121Z 01014KT 05/M02 A3013 RMK A01 T00501023  RH  059%=      5-min Rain = 0
KST4 170122Z 01015KT 05/M02 A3013 RMK A01 T00491023  RH  060%=      5-min Rain = 0
KST4 170123Z 00013G18KT 05/M02 A3013 RMK A01 T00481023  RH  060%=      5-min Rain = 0
KST4 170124Z 00015KT 05/M02 A3013 RMK A01 T00471022  RH  061%=      5-min Rain = 0
KST4 170125Z 00018KT 05/M02 A3013 RMK A01 T00461023  RH  061%=      5-min Rain = 0
KST4 170126Z 00013KT 05/M02 A3013 RMK A01 T00461023  RH  061%=      5-min Rain = 0
KST4 170127Z 00015KT 05/M02 A3014 RMK A01 T00451023  RH  061%=      5-min Rain = 0
KST4 170128Z 00013KT 04/M02 A3014 RMK A01 T00441023  RH  061%=      5-min Rain = 0
KST4 170129Z 36017KT 04/M02 A3014 RMK A01 T00441024  RH  061%=      5-min Rain = 0
KST4 170130Z 00017KT 04/M03 A3014 RMK A01 T00441025  RH  061%=      5-min Rain = 0
KST4 170131Z 00016KT 04/M02 A3014 RMK A01 T00441024  RH  061%=      5-min Rain = 0
KST4 170132Z 00016KT 04/M02 A3014 RMK A01 T00431024  RH  061%=      5-min Rain = 0
KST4 170133Z 36014KT 04/M02 A3014 RMK A01 T00431024  RH  062%=      5-min Rain = 0
KST4 170134Z 00013KT 04/M03 A3014 RMK A01 T00421025  RH  062%=      5-min Rain = 0
KST4 170135Z 36012KT 04/M03 A3014 RMK A01 T00411025  RH  062%=      5-min Rain = 0
KST4 170136Z 00015KT 04/M03 A3014 RMK A01 T00401025  RH  062%=      5-min Rain = 0
KST4 170137Z 00015KT 04/M03 A3014 RMK A01 T00411025  RH  062%=      5-min Rain = 0
KST4 170138Z 00016KT 04/M03 A3015 RMK A01 T00411025  RH  062%=      5-min Rain = 0
KST4 170139Z 01015KT 04/M03 A3015 RMK A01 T00411025  RH  062%=      5-min Rain = 0
KST4 170140Z 00015KT 04/M03 A3015 RMK A01 T00411025  RH  062%=      5-min Rain = 0
KST4 170141Z 01013KT 04/M03 A3015 RMK A01 T00401025  RH  062%=      5-min Rain = 0
KST4 170142Z 00014KT 04/M03 A3015 RMK A01 T00391025  RH  063%=      5-min Rain = 0
KST4 170143Z 00013KT 04/M03 A3015 RMK A01 T00391025  RH  063%=      5-min Rain = 0
KST4 170144Z 00013KT 04/M03 A3015 RMK A01 T00391025  RH  063%=      5-min Rain = 0
KST4 170145Z 36011KT 04/M03 A3015 RMK A01 T00381025  RH  064%=      5-min Rain = 0
KST4 170146Z 36012KT 04/M03 A3015 RMK A01 T00361025  RH  064%=      5-min Rain = 0
KST4 170147Z 36012KT 04/M03 A3015 RMK A01 T00361025  RH  064%=      5-min Rain = 0
KST4 170148Z 00014KT 04/M03 A3015 RMK A01 T00351025  RH  065%=      5-min Rain = 0
KST4 170149Z 00013KT 04/M03 A3015 RMK A01 T00351025  RH  065%=      5-min Rain = 0
KST4 170150Z 00012KT 04/M03 A3015 RMK A01 T00351025  RH  065%=      5-min Rain = 0
KST4 170151Z 00013KT 04/M03 A3015 RMK A01 T00351025  RH  065%=      5-min Rain = 0
KST4 170152Z 00013KT 04/M03 A3015 RMK A01 T00351025  RH  065%=      5-min Rain = 0
KST4 170153Z 00013KT 04/M03 A3015 RMK A01 T00351026  RH  065%=      5-min Rain = 0
KST4 170154Z 36012KT 03/M03 A3016 RMK A01 T00341026  RH  065%=      5-min Rain = 0
KST4 170155Z 00012KT 03/M03 A3016 RMK A01 T00341026  RH  065%=      5-min Rain = 0
KST4 170156Z 36014KT 03/M03 A3016 RMK A01 T00331026  RH  065%=      5-min Rain = 0
KST4 170157Z 36016KT 03/M03 A3016 RMK A01 T00331026  RH  065%=      5-min Rain = 0
KST4 170158Z 00012KT 03/M03 A3016 RMK A01 T00341027  RH  064%=      5-min Rain = 0
KST4 170159Z 36012KT 03/M03 A3016 RMK A01 T00341027  RH  064%=      5-min Rain = 0
KST4 170200Z 00012KT 03/M03 A3016 RMK A01 T00341027  RH  065%=      5-min Rain = 0
KST4 170201Z 36012KT 03/M03 A3016 RMK A01 T00331027  RH  065%=      5-min Rain = 0
KST4 170202Z 00011KT 03/M03 A3016 RMK A01 T00321027  RH  065%=      5-min Rain = 0
KST4 170203Z 00011KT 03/M03 A3016 RMK A01 T00321027  RH  065%=      5-min Rain = 0
KST4 170204Z 00011KT 03/M03 A3017 RMK A01 T00311027  RH  066%=      5-min Rain = 0
KST4 170205Z 00009KT 03/M03 A3017 RMK A01 T00311027  RH  066%=      5-min Rain = 0
KST4 170206Z 36009KT 03/M03 A3017 RMK A01 T00301027  RH  066%=      5-min Rain = 0
KST4 170207Z 00009KT 03/M03 A3017 RMK A01 T00291027  RH  067%=      5-min Rain = 0
KST4 170208Z 00009KT 03/M03 A3017 RMK A01 T00281027  RH  067%=      5-min Rain = 0
KST4 170209Z 01010KT 03/M03 A3017 RMK A01 T00271027  RH  068%=      5-min Rain = 0
KST4 170210Z 36009KT 03/M03 A3017 RMK A01 T00271027  RH  068%=      5-min Rain = 0
KST4 170211Z 00009KT 03/M03 A3017 RMK A01 T00261027  RH  068%=      5-min Rain = 0
KST4 170212Z 01010KT 03/M03 A3017 RMK A01 T00261026  RH  068%=      5-min Rain = 0
KST4 170213Z 01014KT 03/M03 A3017 RMK A01 T00271026  RH  068%=      5-min Rain = 0
KST4 170214Z 01012KT 03/M03 A3018 RMK A01 T00281026  RH  068%=      5-min Rain = 0
KST4 170215Z 01013KT 03/M03 A3018 RMK A01 T00291027  RH  067%=      5-min Rain = 0
KST4 170216Z 01013KT 03/M03 A3018 RMK A01 T00301027  RH  066%=      5-min Rain = 0
KST4 170217Z 01013KT 03/M03 A3018 RMK A01 T00301028  RH  066%=      5-min Rain = 0
KST4 170218Z 01014KT 03/M03 A3018 RMK A01 T00311028  RH  065%=      5-min Rain = 0
KST4 170219Z 00012KT 03/M03 A3018 RMK A01 T00311028  RH  065%=      5-min Rain = 0
KST4 170220Z 01011KT 03/M03 A3018 RMK A01 T00311028  RH  065%=      5-min Rain = 0
KST4 170221Z 00012KT 03/M03 A3018 RMK A01 T00301028  RH  065%=      5-min Rain = 0
KST4 170222Z 00012KT 03/M03 A3018 RMK A01 T00301029  RH  065%=      5-min Rain = 0
KST4 170223Z 00014KT 03/M03 A3018 RMK A01 T00311030  RH  065%=      5-min Rain = 0
KST4 170224Z 36014KT 03/M03 A3018 RMK A01 T00321031  RH  063%=      5-min Rain = 0
KST4 170225Z 35012KT 03/M03 A3018 RMK A01 T00331031  RH  063%=      5-min Rain = 0
KST4 170226Z 35012KT 03/M03 A3018 RMK A01 T00331032  RH  063%=      5-min Rain = 0
KST4 170227Z 36013KT 03/M03 A3019 RMK A01 T00321033  RH  062%=      5-min Rain = 0
KST4 170228Z 35013KT 03/M03 A3018 RMK A01 T00321034  RH  062%=      5-min Rain = 0
KST4 170229Z 35013KT 03/M03 A3018 RMK A01 T00321034  RH  062%=      5-min Rain = 0
KST4 170230Z 35013KT 03/M03 A3018 RMK A01 T00331034  RH  061%=      5-min Rain = 0
KST4 170231Z 35012KT 03/M03 A3018 RMK A01 T00341034  RH  061%=      5-min Rain = 0
KST4 170232Z 35013KT 03/M03 A3018 RMK A01 T00341034  RH  061%=      5-min Rain = 0
KST4 170233Z 35012KT 04/M03 A3019 RMK A01 T00351034  RH  061%=      5-min Rain = 0
KST4 170234Z 35013KT 04/M03 A3019 RMK A01 T00351034  RH  060%=      5-min Rain = 0
KST4 170235Z 35013KT 04/M03 A3019 RMK A01 T00361034  RH  060%=      5-min Rain = 0
KST4 170236Z 35012KT 04/M03 A3019 RMK A01 T00361034  RH  060%=      5-min Rain = 0
KST4 170237Z 35011KT 04/M04 A3019 RMK A01 T00361035  RH  060%=      5-min Rain = 0
KST4 170238Z 35012KT 04/M03 A3019 RMK A01 T00371034  RH  060%=      5-min Rain = 0
KST4 170239Z 35012KT 04/M03 A3019 RMK A01 T00371034  RH  060%=      5-min Rain = 0
KST4 170240Z 35012KT 04/M03 A3019 RMK A01 T00371034  RH  059%=      5-min Rain = 0
KST4 170241Z 35011KT 04/M03 A3019 RMK A01 T00381034  RH  059%=      5-min Rain = 0
KST4 170242Z 35012KT 04/M03 A3019 RMK A01 T00381034  RH  059%=      5-min Rain = 0
KST4 170243Z 35013KT 04/M03 A3019 RMK A01 T00381034  RH  059%=      5-min Rain = 0
KST4 170244Z 35015KT 04/M03 A3019 RMK A01 T00381034  RH  059%=      5-min Rain = 0
KST4 170245Z 35011KT 04/M03 A3019 RMK A01 T00391034  RH  059%=      5-min Rain = 0
KST4 170246Z 35014KT 04/M03 A3019 RMK A01 T00391034  RH  059%=      5-min Rain = 0
KST4 170247Z 35013KT 04/M03 A3019 RMK A01 T00391034  RH  059%=      5-min Rain = 0
KST4 170248Z 35011KT 04/M03 A3019 RMK A01 T00391034  RH  059%=      5-min Rain = 0
KST4 170249Z 35012KT 04/M03 A3019 RMK A01 T00391034  RH  059%=      5-min Rain = 0
KST4 170250Z 35013KT 04/M03 A3019 RMK A01 T00391034  RH  059%=      5-min Rain = 0
KST4 170251Z 35012KT 04/M03 A3019 RMK A01 T00391033  RH  059%=      5-min Rain = 0
KST4 170252Z 35014KT 04/M03 A3019 RMK A01 T00391033  RH  059%=      5-min Rain = 0
KST4 170253Z 35012KT 04/M03 A3019 RMK A01 T00391033  RH  059%=      5-min Rain = 0
KST4 170254Z 36012KT 04/M03 A3019 RMK A01 T00391032  RH  060%=      5-min Rain = 0
KST4 170255Z 35013KT 04/M03 A3019 RMK A01 T00391032  RH  060%=      5-min Rain = 0
KST4 170256Z 35014KT 04/M03 A3019 RMK A01 T00391032  RH  060%=      5-min Rain = 0
KST4 170257Z 35012KT 04/M03 A3019 RMK A01 T00391033  RH  059%=      5-min Rain = 0
KST4 170258Z 35012KT 04/M03 A3019 RMK A01 T00401032  RH  060%=      5-min Rain = 0
KST4 170259Z 35012KT 04/M03 A3019 RMK A01 T00391031  RH  060%=      5-min Rain = 0
KST4 170300Z 35015KT 04/M03 A3019 RMK A01 T00391031  RH  060%=      5-min Rain = 0
KST4 170301Z 35015KT 04/M03 A3019 RMK A01 T00391031  RH  060%=      5-min Rain = 0
KST4 170302Z 35012KT 04/M03 A3019 RMK A01 T00391032  RH  060%=      5-min Rain = 0
KST4 170303Z 35013KT 04/M03 A3019 RMK A01 T00401031  RH  060%=      5-min Rain = 0
KST4 170304Z 35015KT 04/M03 A3019 RMK A01 T00391031  RH  060%=      5-min Rain = 0
KST4 170305Z 35013KT 04/M03 A3019 RMK A01 T00391031  RH  060%=      5-min Rain = 0
KST4 170306Z 35014KT 04/M03 A3019 RMK A01 T00391030  RH  061%=      5-min Rain = 0
KST4 170307Z 35014KT 04/M03 A3019 RMK A01 T00381030  RH  061%=      5-min Rain = 0
KST4 170308Z 35013KT 04/M03 A3019 RMK A01 T00381030  RH  061%=      5-min Rain = 0
KST4 170309Z 35014KT 04/M03 A3019 RMK A01 T00381030  RH  061%=      5-min Rain = 0
KST4 170310Z 36013KT 04/M03 A3019 RMK A01 T00381030  RH  061%=      5-min Rain = 0
KST4 170311Z 35013KT 04/M03 A3019 RMK A01 T00371029  RH  062%=      5-min Rain = 0
KST4 170312Z 35014KT 04/M03 A3019 RMK A01 T00371029  RH  062%=      5-min Rain = 0
KST4 170313Z 35014KT 04/M03 A3019 RMK A01 T00371029  RH  062%=      5-min Rain = 0
KST4 170314Z 35014KT 04/M03 A3019 RMK A01 T00371029  RH  062%=      5-min Rain = 0
KST4 170315Z 35013KT 04/M03 A3019 RMK A01 T00371028  RH  062%=      5-min Rain = 0
KST4 170316Z 35014KT 04/M03 A3019 RMK A01 T00361029  RH  063%=      5-min Rain = 0
KST4 170317Z 35015KT 04/M03 A3019 RMK A01 T00361028  RH  063%=      5-min Rain = 0
KST4 170318Z 36013KT 04/M03 A3019 RMK A01 T00361028  RH  063%=      5-min Rain = 0
KST4 170319Z 35014KT 04/M03 A3019 RMK A01 T00361028  RH  063%=      5-min Rain = 0
KST4 170320Z 35015KT 04/M03 A3019 RMK A01 T00351028  RH  063%=      5-min Rain = 0
KST4 170321Z 36014KT 04/M03 A3019 RMK A01 T00351027  RH  064%=      5-min Rain = 0
KST4 170322Z 36012KT 04/M03 A3019 RMK A01 T00351027  RH  064%=      5-min Rain = 0
KST4 170323Z 36014KT 04/M03 A3019 RMK A01 T00351027  RH  064%=      5-min Rain = 0
KST4 170324Z 36014KT 04/M03 A3019 RMK A01 T00351027  RH  064%=      5-min Rain = 0
KST4 170325Z 36013KT 04/M03 A3019 RMK A01 T00361026  RH  064%=      5-min Rain = 0
KST4 170326Z 35014KT 04/M03 A3019 RMK A01 T00351027  RH  064%=      5-min Rain = 0
KST4 170327Z 36015KT 04/M03 A3019 RMK A01 T00351027  RH  064%=      5-min Rain = 0
KST4 170328Z 36011KT 03/M03 A3019 RMK A01 T00341027  RH  064%=      5-min Rain = 0
KST4 170329Z 36012KT 03/M03 A3019 RMK A01 T00331027  RH  064%=      5-min Rain = 0
KST4 170330Z 36012KT 03/M03 A3019 RMK A01 T00321028  RH  065%=      5-min Rain = 0
KST4 170331Z 36012KT 03/M03 A3019 RMK A01 T00311028  RH  065%=      5-min Rain = 0
KST4 170332Z 35013KT 03/M03 A3019 RMK A01 T00311028  RH  065%=      5-min Rain = 0
KST4 170333Z 36012KT 03/M03 A3019 RMK A01 T00301028  RH  065%=      5-min Rain = 0
KST4 170334Z 36013KT 03/M03 A3019 RMK A01 T00291028  RH  066%=      5-min Rain = 0
KST4 170335Z 36013KT 03/M03 A3019 RMK A01 T00291028  RH  066%=      5-min Rain = 0
KST4 170336Z 36013KT 03/M03 A3019 RMK A01 T00281028  RH  066%=      5-min Rain = 0
KST4 170337Z 35014KT 03/M03 A3019 RMK A01 T00281029  RH  067%=      5-min Rain = 0
KST4 170338Z 36013KT 03/M03 A3019 RMK A01 T00281028  RH  067%=      5-min Rain = 0
KST4 170339Z 36014KT 03/M03 A3019 RMK A01 T00281028  RH  067%=      5-min Rain = 0
KST4 170340Z 00013KT 03/M03 A3019 RMK A01 T00281028  RH  067%=      5-min Rain = 0
KST4 170341Z 36013KT 03/M03 A3019 RMK A01 T00281028  RH  067%=      5-min Rain = 0
KST4 170342Z 36014KT 03/M03 A302 RMK A01 T00271028  RH  067%=      5-min Rain = 0
KST4 170343Z 36013KT 03/M03 A302 RMK A01 T00261028  RH  067%=      5-min Rain = 0
KST4 170344Z 36011KT 03/M03 A302 RMK A01 T00261028  RH  068%=      5-min Rain = 0
KST4 170345Z 36012KT 03/M03 A302 RMK A01 T00251028  RH  068%=      5-min Rain = 0
KST4 170346Z 35012KT 02/M03 A302 RMK A01 T00241028  RH  068%=      5-min Rain = 0
KST4 170347Z 35012KT 02/M03 A302 RMK A01 T00241028  RH  068%=      5-min Rain = 0
KST4 170348Z 35012KT 02/M03 A302 RMK A01 T00241028  RH  068%=      5-min Rain = 0
KST4 170349Z 35011KT 02/M03 A302 RMK A01 T00241028  RH  069%=      5-min Rain = 0
KST4 170350Z 35011KT 02/M03 A302 RMK A01 T00231028  RH  069%=      5-min Rain = 0
KST4 170351Z 35012KT 02/M03 A302 RMK A01 T00231028  RH  069%=      5-min Rain = 0
KST4 170352Z 35011KT 02/M03 A302 RMK A01 T00221028  RH  069%=      5-min Rain = 0
KST4 170353Z 35011KT 02/M03 A302 RMK A01 T00221028  RH  070%=      5-min Rain = 0
KST4 170354Z 35011KT 02/M03 A302 RMK A01 T00211028  RH  070%=      5-min Rain = 0
KST4 170355Z 35012KT 02/M03 A302 RMK A01 T00211028  RH  070%=      5-min Rain = 0
KST4 170356Z 35011KT 02/M03 A302 RMK A01 T00211027  RH  070%=      5-min Rain = 0
KST4 170357Z 35011KT 02/M03 A302 RMK A01 T00201028  RH  071%=      5-min Rain = 0
KST4 170358Z 35011KT 02/M03 A302 RMK A01 T00191028  RH  071%=      5-min Rain = 0
KST4 170359Z 35012KT 02/M03 A302 RMK A01 T00181028  RH  071%=      5-min Rain = 0
KST4 170400Z 36012KT 02/M03 A302 RMK A01 T00181028  RH  071%=      5-min Rain = 0
KST4 170401Z 36012KT 02/M03 A302 RMK A01 T00171028  RH  072%=      5-min Rain = 0
KST4 170402Z 36011KT 02/M03 A302 RMK A01 T00171028  RH  072%=      5-min Rain = 0
KST4 170403Z 36012KT 02/M03 A3019 RMK A01 T00171028  RH  072%=      5-min Rain = 0
KST4 170404Z 36011KT 02/M03 A3019 RMK A01 T00161028  RH  072%=      5-min Rain = 0
KST4 170405Z 35011KT 02/M03 A302 RMK A01 T00161028  RH  073%=      5-min Rain = 0
KST4 170406Z 35011KT 02/M03 A302 RMK A01 T00151028  RH  073%=      5-min Rain = 0
KST4 170407Z 35011KT 02/M03 A302 RMK A01 T00151028  RH  073%=      5-min Rain = 0
KST4 170408Z 35012KT 01/M03 A302 RMK A01 T00141028  RH  073%=      5-min Rain = 0
KST4 170409Z 35011KT 01/M03 A302 RMK A01 T00141028  RH  074%=      5-min Rain = 0
KST4 170410Z 35011KT 01/M03 A302 RMK A01 T00141028  RH  074%=      5-min Rain = 0
KST4 170411Z 35011KT 01/M03 A302 RMK A01 T00141028  RH  074%=      5-min Rain = 0
KST4 170412Z 35010KT 01/M03 A302 RMK A01 T00131029  RH  074%=      5-min Rain = 0
KST4 170413Z 35010KT 01/M03 A302 RMK A01 T00121029  RH  074%=      5-min Rain = 0
KST4 170414Z 35010KT 01/M03 A302 RMK A01 T00121029  RH  074%=      5-min Rain = 0
KST4 170415Z 35011KT 01/M03 A302 RMK A01 T00111029  RH  074%=      5-min Rain = 0
KST4 170416Z 35011KT 01/M03 A302 RMK A01 T00111029  RH  075%=      5-min Rain = 0
KST4 170417Z 35011KT 01/M03 A302 RMK A01 T00111029  RH  075%=      5-min Rain = 0
KST4 170418Z 35012KT 01/M03 A302 RMK A01 T00111028  RH  075%=      5-min Rain = 0
KST4 170419Z 35011KT 01/M03 A302 RMK A01 T00121027  RH  075%=      5-min Rain = 0
KST4 170420Z 35011KT 01/M03 A302 RMK A01 T00121027  RH  075%=      5-min Rain = 0
KST4 170421Z 35010KT 01/M03 A302 RMK A01 T00121027  RH  075%=      5-min Rain = 0
KST4 170422Z 35010KT 01/M03 A302 RMK A01 T00131027  RH  075%=      5-min Rain = 0
KST4 170423Z 35010KT 01/M03 A302 RMK A01 T00121026  RH  075%=      5-min Rain = 0
KST4 170424Z 35010KT 01/M03 A302 RMK A01 T00121026  RH  076%=      5-min Rain = 0
KST4 170425Z 35010KT 01/M03 A3021 RMK A01 T00121026  RH  076%=      5-min Rain = 0
KST4 170426Z 35011KT 01/M03 A3021 RMK A01 T00131025  RH  076%=      5-min Rain = 0
KST4 170427Z 34011KT 01/M03 A3021 RMK A01 T00141025  RH  076%=      5-min Rain = 0
KST4 170428Z 34010KT 01/M03 A3021 RMK A01 T00141025  RH  076%=      5-min Rain = 0
KST4 170429Z 34011KT 01/M02 A3021 RMK A01 T00141024  RH  075%=      5-min Rain = 0
KST4 170430Z 34010KT 01/M03 A3021 RMK A01 T00141025  RH  075%=      5-min Rain = 0
KST4 170431Z 34010KT 01/M02 A3021 RMK A01 T00141024  RH  075%=      5-min Rain = 0
KST4 170432Z 34010KT 01/M02 A3021 RMK A01 T00141024  RH  076%=      5-min Rain = 0
KST4 170433Z 34011KT 01/M02 A3021 RMK A01 T00141024  RH  076%=      5-min Rain = 0
KST4 170434Z 34011KT 01/M02 A3021 RMK A01 T00141024  RH  075%=      5-min Rain = 0
KST4 170435Z 34011KT 01/M02 A3021 RMK A01 T00141024  RH  075%=      5-min Rain = 0
KST4 170436Z 34012KT 01/M02 A3021 RMK A01 T00141024  RH  076%=      5-min Rain = 0
KST4 170437Z 34012KT 02/M02 A3021 RMK A01 T00151023  RH  076%=      5-min Rain = 0
KST4 170438Z 34012KT 02/M02 A3021 RMK A01 T00161023  RH  075%=      5-min Rain = 0
KST4 170439Z 35012KT 02/M02 A3021 RMK A01 T00161023  RH  075%=      5-min Rain = 0
KST4 170440Z 35013KT 02/M02 A3021 RMK A01 T00171022  RH  075%=      5-min Rain = 0
KST4 170441Z 35013KT 02/M02 A3021 RMK A01 T00181022  RH  075%=      5-min Rain = 0
KST4 170442Z 34013KT 02/M02 A3021 RMK A01 T00181022  RH  075%=      5-min Rain = 0
KST4 170443Z 35013KT 02/M02 A3021 RMK A01 T00181022  RH  075%=      5-min Rain = 0
KST4 170444Z 35013KT 02/M02 A3021 RMK A01 T00181022  RH  075%=      5-min Rain = 0
KST4 170445Z 34012KT 02/M02 A3021 RMK A01 T00181022  RH  075%=      5-min Rain = 0
KST4 170446Z 35012KT 02/M02 A3021 RMK A01 T00181022  RH  075%=      5-min Rain = 0
KST4 170447Z 34013KT 02/M02 A3021 RMK A01 T00181022  RH  075%=      5-min Rain = 0
KST4 170448Z 35013KT 02/M02 A3021 RMK A01 T00181021  RH  075%=      5-min Rain = 0
KST4 170449Z 35012KT 02/M02 A3021 RMK A01 T00181021  RH  075%=      5-min Rain = 0
KST4 170450Z 35011KT 02/M02 A3021 RMK A01 T00181021  RH  075%=      5-min Rain = 0
KST4 170451Z 34012KT 02/M02 A3021 RMK A01 T00181021  RH  075%=      5-min Rain = 0
KST4 170452Z 35013KT 02/M02 A3021 RMK A01 T00171021  RH  076%=      5-min Rain = 0
KST4 170453Z 35014KT 02/M02 A3021 RMK A01 T00171021  RH  076%=      5-min Rain = 0
KST4 170454Z 35013KT 02/M02 A3021 RMK A01 T00181021  RH  075%=      5-min Rain = 0
KST4 170455Z 35012KT 02/M02 A3021 RMK A01 T00171021  RH  075%=      5-min Rain = 0
KST4 170456Z 35013KT 02/M02 A3021 RMK A01 T00181021  RH  075%=      5-min Rain = 0
KST4 170457Z 35013KT 02/M02 A3021 RMK A01 T00181021  RH  075%=      5-min Rain = 0
KST4 170458Z 34012KT 02/M02 A3021 RMK A01 T00181021  RH  075%=      5-min Rain = 0
KST4 170459Z 35012KT 02/M02 A3021 RMK A01 T00171021  RH  075%=      5-min Rain = 0

Page generated in 0.0636 seconds.